<?xml version="1.0" encoding="UTF-8" standalone="no" ?>
<gpx xmlns="http://www.topografix.com/GPX/1/1" xmlns:xsi="http://www.w3.org/2001/XMLSchema-instance" xsi:schemaLocation="http://www.topografix.com/GPX/1/1 http://www.topografix.com/GPX/1/1/gpx.xsd" version="1.1" creator="VisuGPX - https://www.visugpx.com">
  <metadata>
    <name>petit circuit forêt Passy</name>
    <desc><![CDATA[Trace AlpineQuest 22/08/2018 11:28:52]]></desc>
  </metadata>
  <trk>
    <name><![CDATA[petit circuit]]></name>
    <trkseg>
      <trkpt lat="46.53787" lon="4.53377">
        <ele>245.60000610352</ele>
        <time>2018-08-22T09:28:52Z</time>
      </trkpt>
      <trkpt lat="46.53792" lon="4.53355">
        <ele>234.60000610352</ele>
        <time>2018-08-22T09:29:32Z</time>
      </trkpt>
      <trkpt lat="46.53784" lon="4.53362">
        <ele>241.60000610352</ele>
        <time>2018-08-22T09:30:50Z</time>
      </trkpt>
      <trkpt lat="46.53783" lon="4.53373">
        <ele>242.60000610352</ele>
        <time>2018-08-22T09:30:54Z</time>
      </trkpt>
      <trkpt lat="46.53774" lon="4.53359">
        <ele>247.60000610352</ele>
        <time>2018-08-22T09:31:05Z</time>
      </trkpt>
      <trkpt lat="46.53771" lon="4.53347">
        <ele>248.60000610352</ele>
        <time>2018-08-22T09:31:24Z</time>
      </trkpt>
      <trkpt lat="46.53772" lon="4.53337">
        <ele>251.60000610352</ele>
        <time>2018-08-22T09:37:57Z</time>
      </trkpt>
      <trkpt lat="46.53767" lon="4.53327">
        <ele>250.60000610352</ele>
        <time>2018-08-22T09:38:05Z</time>
      </trkpt>
      <trkpt lat="46.53759" lon="4.53324">
        <ele>250.60000610352</ele>
        <time>2018-08-22T09:38:12Z</time>
      </trkpt>
      <trkpt lat="46.53751" lon="4.53322">
        <ele>250.60000610352</ele>
        <time>2018-08-22T09:38:19Z</time>
      </trkpt>
      <trkpt lat="46.53743" lon="4.53321">
        <ele>250.60000610352</ele>
        <time>2018-08-22T09:38:25Z</time>
      </trkpt>
      <trkpt lat="46.53735" lon="4.53321">
        <ele>248.60000610352</ele>
        <time>2018-08-22T09:38:31Z</time>
      </trkpt>
      <trkpt lat="46.53727" lon="4.53323">
        <ele>249.60000610352</ele>
        <time>2018-08-22T09:38:37Z</time>
      </trkpt>
      <trkpt lat="46.5372" lon="4.53325">
        <ele>248.60000610352</ele>
        <time>2018-08-22T09:38:43Z</time>
      </trkpt>
      <trkpt lat="46.53712" lon="4.53329">
        <ele>246.60000610352</ele>
        <time>2018-08-22T09:38:50Z</time>
      </trkpt>
      <trkpt lat="46.53705" lon="4.53329">
        <ele>246.60000610352</ele>
        <time>2018-08-22T09:38:56Z</time>
      </trkpt>
      <trkpt lat="46.53697" lon="4.5333">
        <ele>245.60000610352</ele>
        <time>2018-08-22T09:39:02Z</time>
      </trkpt>
      <trkpt lat="46.53681" lon="4.53327">
        <ele>243.60000610352</ele>
        <time>2018-08-22T09:39:13Z</time>
      </trkpt>
      <trkpt lat="46.53674" lon="4.53322">
        <ele>247.60000610352</ele>
        <time>2018-08-22T09:39:18Z</time>
      </trkpt>
      <trkpt lat="46.53666" lon="4.5332">
        <ele>245.60000610352</ele>
        <time>2018-08-22T09:39:25Z</time>
      </trkpt>
      <trkpt lat="46.53658" lon="4.53314">
        <ele>246.60000610352</ele>
        <time>2018-08-22T09:39:31Z</time>
      </trkpt>
      <trkpt lat="46.5365" lon="4.53309">
        <ele>246.60000610352</ele>
        <time>2018-08-22T09:39:37Z</time>
      </trkpt>
      <trkpt lat="46.53643" lon="4.53303">
        <ele>247.60000610352</ele>
        <time>2018-08-22T09:39:42Z</time>
      </trkpt>
      <trkpt lat="46.53636" lon="4.53297">
        <ele>245.60000610352</ele>
        <time>2018-08-22T09:39:50Z</time>
      </trkpt>
      <trkpt lat="46.5363" lon="4.53292">
        <ele>245.60000610352</ele>
        <time>2018-08-22T09:39:55Z</time>
      </trkpt>
      <trkpt lat="46.53616" lon="4.53282">
        <ele>243.60000610352</ele>
        <time>2018-08-22T09:40:07Z</time>
      </trkpt>
      <trkpt lat="46.53607" lon="4.53277">
        <ele>242.60000610352</ele>
        <time>2018-08-22T09:40:14Z</time>
      </trkpt>
      <trkpt lat="46.53601" lon="4.53269">
        <ele>244.60000610352</ele>
        <time>2018-08-22T09:40:17Z</time>
      </trkpt>
      <trkpt lat="46.53594" lon="4.53263">
        <ele>245.60000610352</ele>
        <time>2018-08-22T09:40:22Z</time>
      </trkpt>
      <trkpt lat="46.53588" lon="4.53257">
        <ele>247.60000610352</ele>
        <time>2018-08-22T09:40:27Z</time>
      </trkpt>
      <trkpt lat="46.53581" lon="4.53256">
        <ele>246.60000610352</ele>
        <time>2018-08-22T09:40:33Z</time>
      </trkpt>
      <trkpt lat="46.53574" lon="4.53249">
        <ele>245.60000610352</ele>
        <time>2018-08-22T09:40:40Z</time>
      </trkpt>
      <trkpt lat="46.53566" lon="4.53247">
        <ele>244.60000610352</ele>
        <time>2018-08-22T09:40:47Z</time>
      </trkpt>
      <trkpt lat="46.5356" lon="4.5324">
        <ele>247.60000610352</ele>
        <time>2018-08-22T09:40:52Z</time>
      </trkpt>
      <trkpt lat="46.53545" lon="4.53226">
        <ele>247.60000610352</ele>
        <time>2018-08-22T09:41:02Z</time>
      </trkpt>
      <trkpt lat="46.53538" lon="4.53219">
        <ele>249.60000610352</ele>
        <time>2018-08-22T09:41:07Z</time>
      </trkpt>
      <trkpt lat="46.53532" lon="4.5321">
        <ele>250.60000610352</ele>
        <time>2018-08-22T09:41:15Z</time>
      </trkpt>
      <trkpt lat="46.53525" lon="4.53207">
        <ele>250.60000610352</ele>
        <time>2018-08-22T09:41:21Z</time>
      </trkpt>
      <trkpt lat="46.53509" lon="4.53194">
        <ele>247.59899902344</ele>
        <time>2018-08-22T09:41:33Z</time>
      </trkpt>
      <trkpt lat="46.53501" lon="4.53193">
        <ele>244.59899902344</ele>
        <time>2018-08-22T09:41:38Z</time>
      </trkpt>
      <trkpt lat="46.53493" lon="4.53185">
        <ele>246.59899902344</ele>
        <time>2018-08-22T09:41:43Z</time>
      </trkpt>
      <trkpt lat="46.53486" lon="4.53181">
        <ele>247.59899902344</ele>
        <time>2018-08-22T09:41:55Z</time>
      </trkpt>
      <trkpt lat="46.53477" lon="4.53177">
        <ele>247.59899902344</ele>
        <time>2018-08-22T09:42:01Z</time>
      </trkpt>
      <trkpt lat="46.53468" lon="4.53174">
        <ele>249.59899902344</ele>
        <time>2018-08-22T09:42:08Z</time>
      </trkpt>
      <trkpt lat="46.53459" lon="4.53171">
        <ele>249.59899902344</ele>
        <time>2018-08-22T09:42:14Z</time>
      </trkpt>
      <trkpt lat="46.53452" lon="4.53167">
        <ele>250.59899902344</ele>
        <time>2018-08-22T09:42:18Z</time>
      </trkpt>
      <trkpt lat="46.53438" lon="4.53156">
        <ele>249.59899902344</ele>
        <time>2018-08-22T09:42:25Z</time>
      </trkpt>
      <trkpt lat="46.5343" lon="4.5315">
        <ele>251.59899902344</ele>
        <time>2018-08-22T09:42:31Z</time>
      </trkpt>
      <trkpt lat="46.53422" lon="4.53145">
        <ele>249.59899902344</ele>
        <time>2018-08-22T09:42:37Z</time>
      </trkpt>
      <trkpt lat="46.53418" lon="4.53137">
        <ele>247.59899902344</ele>
        <time>2018-08-22T09:42:52Z</time>
      </trkpt>
      <trkpt lat="46.53412" lon="4.53127">
        <ele>246.59899902344</ele>
        <time>2018-08-22T09:42:57Z</time>
      </trkpt>
      <trkpt lat="46.53408" lon="4.53104">
        <ele>250.59899902344</ele>
        <time>2018-08-22T09:43:07Z</time>
      </trkpt>
      <trkpt lat="46.53406" lon="4.53093">
        <ele>247.59899902344</ele>
        <time>2018-08-22T09:43:12Z</time>
      </trkpt>
      <trkpt lat="46.53403" lon="4.53083">
        <ele>249.59899902344</ele>
        <time>2018-08-22T09:43:17Z</time>
      </trkpt>
      <trkpt lat="46.53403" lon="4.53071">
        <ele>250.59899902344</ele>
        <time>2018-08-22T09:43:24Z</time>
      </trkpt>
      <trkpt lat="46.534" lon="4.53059">
        <ele>251.59899902344</ele>
        <time>2018-08-22T09:43:30Z</time>
      </trkpt>
      <trkpt lat="46.53397" lon="4.53049">
        <ele>252.59899902344</ele>
        <time>2018-08-22T09:43:35Z</time>
      </trkpt>
      <trkpt lat="46.53394" lon="4.53026">
        <ele>253.59899902344</ele>
        <time>2018-08-22T09:43:46Z</time>
      </trkpt>
      <trkpt lat="46.53394" lon="4.53015">
        <ele>254.59899902344</ele>
        <time>2018-08-22T09:43:51Z</time>
      </trkpt>
      <trkpt lat="46.53387" lon="4.52998">
        <ele>256.59899902344</ele>
        <time>2018-08-22T09:43:58Z</time>
      </trkpt>
      <trkpt lat="46.53385" lon="4.52987">
        <ele>257.59899902344</ele>
        <time>2018-08-22T09:44:04Z</time>
      </trkpt>
      <trkpt lat="46.53376" lon="4.52968">
        <ele>258.59899902344</ele>
        <time>2018-08-22T09:44:15Z</time>
      </trkpt>
      <trkpt lat="46.53372" lon="4.52948">
        <ele>254.59899902344</ele>
        <time>2018-08-22T09:44:27Z</time>
      </trkpt>
      <trkpt lat="46.53365" lon="4.52942">
        <ele>257.59899902344</ele>
        <time>2018-08-22T09:44:32Z</time>
      </trkpt>
      <trkpt lat="46.5336" lon="4.52922">
        <ele>255.59899902344</ele>
        <time>2018-08-22T09:44:43Z</time>
      </trkpt>
      <trkpt lat="46.53356" lon="4.52913">
        <ele>255.59899902344</ele>
        <time>2018-08-22T09:44:49Z</time>
      </trkpt>
      <trkpt lat="46.53353" lon="4.52903">
        <ele>257.59899902344</ele>
        <time>2018-08-22T09:44:54Z</time>
      </trkpt>
      <trkpt lat="46.53347" lon="4.52894">
        <ele>255.59899902344</ele>
        <time>2018-08-22T09:44:59Z</time>
      </trkpt>
      <trkpt lat="46.53345" lon="4.52884">
        <ele>254.59899902344</ele>
        <time>2018-08-22T09:45:04Z</time>
      </trkpt>
      <trkpt lat="46.53343" lon="4.52873">
        <ele>257.59899902344</ele>
        <time>2018-08-22T09:45:08Z</time>
      </trkpt>
      <trkpt lat="46.53339" lon="4.52864">
        <ele>255.59899902344</ele>
        <time>2018-08-22T09:45:13Z</time>
      </trkpt>
      <trkpt lat="46.53335" lon="4.52848">
        <ele>260.59899902344</ele>
        <time>2018-08-22T09:45:17Z</time>
      </trkpt>
      <trkpt lat="46.5333" lon="4.52841">
        <ele>255.59899902344</ele>
        <time>2018-08-22T09:45:23Z</time>
      </trkpt>
      <trkpt lat="46.53322" lon="4.52831">
        <ele>258.59899902344</ele>
        <time>2018-08-22T09:45:29Z</time>
      </trkpt>
      <trkpt lat="46.53316" lon="4.52825">
        <ele>258.59899902344</ele>
        <time>2018-08-22T09:45:36Z</time>
      </trkpt>
      <trkpt lat="46.53309" lon="4.52819">
        <ele>261.59899902344</ele>
        <time>2018-08-22T09:45:42Z</time>
      </trkpt>
      <trkpt lat="46.53303" lon="4.52813">
        <ele>259.59899902344</ele>
        <time>2018-08-22T09:45:46Z</time>
      </trkpt>
      <trkpt lat="46.53287" lon="4.52798">
        <ele>256.59899902344</ele>
        <time>2018-08-22T09:45:54Z</time>
      </trkpt>
      <trkpt lat="46.53278" lon="4.52798">
        <ele>255.59899902344</ele>
        <time>2018-08-22T09:46:07Z</time>
      </trkpt>
      <trkpt lat="46.53269" lon="4.52794">
        <ele>255.59899902344</ele>
        <time>2018-08-22T09:46:14Z</time>
      </trkpt>
      <trkpt lat="46.53255" lon="4.5278">
        <ele>255.59800720215</ele>
        <time>2018-08-22T09:46:22Z</time>
      </trkpt>
      <trkpt lat="46.5324" lon="4.52769">
        <ele>257.59799194336</ele>
        <time>2018-08-22T09:46:35Z</time>
      </trkpt>
      <trkpt lat="46.53234" lon="4.52761">
        <ele>257.59799194336</ele>
        <time>2018-08-22T09:46:40Z</time>
      </trkpt>
      <trkpt lat="46.53228" lon="4.52753">
        <ele>260.59799194336</ele>
        <time>2018-08-22T09:46:45Z</time>
      </trkpt>
      <trkpt lat="46.53222" lon="4.52746">
        <ele>260.59799194336</ele>
        <time>2018-08-22T09:46:50Z</time>
      </trkpt>
      <trkpt lat="46.53224" lon="4.52735">
        <ele>255.59800720215</ele>
        <time>2018-08-22T09:47:00Z</time>
      </trkpt>
      <trkpt lat="46.53232" lon="4.52714">
        <ele>256.59799194336</ele>
        <time>2018-08-22T09:47:08Z</time>
      </trkpt>
      <trkpt lat="46.5323" lon="4.52703">
        <ele>255.59800720215</ele>
        <time>2018-08-22T09:47:14Z</time>
      </trkpt>
      <trkpt lat="46.53231" lon="4.52691">
        <ele>255.59800720215</ele>
        <time>2018-08-22T09:47:20Z</time>
      </trkpt>
      <trkpt lat="46.53228" lon="4.52668">
        <ele>252.59800720215</ele>
        <time>2018-08-22T09:47:29Z</time>
      </trkpt>
      <trkpt lat="46.53228" lon="4.52657">
        <ele>254.59800720215</ele>
        <time>2018-08-22T09:47:36Z</time>
      </trkpt>
      <trkpt lat="46.53227" lon="4.52645">
        <ele>254.59800720215</ele>
        <time>2018-08-22T09:47:41Z</time>
      </trkpt>
      <trkpt lat="46.53228" lon="4.52631">
        <ele>256.59799194336</ele>
        <time>2018-08-22T09:47:46Z</time>
      </trkpt>
      <trkpt lat="46.5323" lon="4.52609">
        <ele>258.59799194336</ele>
        <time>2018-08-22T09:47:58Z</time>
      </trkpt>
      <trkpt lat="46.53224" lon="4.52601">
        <ele>255.59800720215</ele>
        <time>2018-08-22T09:48:03Z</time>
      </trkpt>
      <trkpt lat="46.53223" lon="4.52578">
        <ele>254.59800720215</ele>
        <time>2018-08-22T09:48:14Z</time>
      </trkpt>
      <trkpt lat="46.53222" lon="4.52563">
        <ele>256.59799194336</ele>
        <time>2018-08-22T09:48:21Z</time>
      </trkpt>
      <trkpt lat="46.53221" lon="4.52552">
        <ele>260.59799194336</ele>
        <time>2018-08-22T09:48:25Z</time>
      </trkpt>
      <trkpt lat="46.5322" lon="4.5254">
        <ele>258.59799194336</ele>
        <time>2018-08-22T09:48:30Z</time>
      </trkpt>
      <trkpt lat="46.53223" lon="4.52529">
        <ele>261.59799194336</ele>
        <time>2018-08-22T09:48:37Z</time>
      </trkpt>
      <trkpt lat="46.53226" lon="4.52519">
        <ele>254.59800720215</ele>
        <time>2018-08-22T09:48:45Z</time>
      </trkpt>
      <trkpt lat="46.53235" lon="4.52518">
        <ele>252.59800720215</ele>
        <time>2018-08-22T09:48:51Z</time>
      </trkpt>
      <trkpt lat="46.53243" lon="4.52513">
        <ele>251.59800720215</ele>
        <time>2018-08-22T09:48:58Z</time>
      </trkpt>
      <trkpt lat="46.5326" lon="4.52505">
        <ele>257.59799194336</ele>
        <time>2018-08-22T09:49:06Z</time>
      </trkpt>
      <trkpt lat="46.53267" lon="4.525">
        <ele>260.59799194336</ele>
        <time>2018-08-22T09:49:14Z</time>
      </trkpt>
      <trkpt lat="46.53275" lon="4.52496">
        <ele>262.59799194336</ele>
        <time>2018-08-22T09:49:18Z</time>
      </trkpt>
      <trkpt lat="46.53282" lon="4.5249">
        <ele>261.59799194336</ele>
        <time>2018-08-22T09:49:23Z</time>
      </trkpt>
      <trkpt lat="46.53286" lon="4.5248">
        <ele>262.59799194336</ele>
        <time>2018-08-22T09:49:30Z</time>
      </trkpt>
      <trkpt lat="46.53287" lon="4.52458">
        <ele>263.59799194336</ele>
        <time>2018-08-22T09:49:39Z</time>
      </trkpt>
      <trkpt lat="46.53287" lon="4.52447">
        <ele>262.59799194336</ele>
        <time>2018-08-22T09:49:45Z</time>
      </trkpt>
      <trkpt lat="46.53292" lon="4.52435">
        <ele>264.59799194336</ele>
        <time>2018-08-22T09:49:51Z</time>
      </trkpt>
      <trkpt lat="46.53298" lon="4.52414">
        <ele>264.59799194336</ele>
        <time>2018-08-22T09:50:01Z</time>
      </trkpt>
      <trkpt lat="46.53302" lon="4.52404">
        <ele>262.59799194336</ele>
        <time>2018-08-22T09:50:07Z</time>
      </trkpt>
      <trkpt lat="46.533" lon="4.5239">
        <ele>260.59799194336</ele>
        <time>2018-08-22T09:50:13Z</time>
      </trkpt>
      <trkpt lat="46.53299" lon="4.52378">
        <ele>263.59799194336</ele>
        <time>2018-08-22T09:50:18Z</time>
      </trkpt>
      <trkpt lat="46.53304" lon="4.5237">
        <ele>264.59799194336</ele>
        <time>2018-08-22T09:50:24Z</time>
      </trkpt>
      <trkpt lat="46.53306" lon="4.52346">
        <ele>261.59799194336</ele>
        <time>2018-08-22T09:50:40Z</time>
      </trkpt>
      <trkpt lat="46.53306" lon="4.52334">
        <ele>263.59799194336</ele>
        <time>2018-08-22T09:50:45Z</time>
      </trkpt>
      <trkpt lat="46.53301" lon="4.52325">
        <ele>264.59799194336</ele>
        <time>2018-08-22T09:50:53Z</time>
      </trkpt>
      <trkpt lat="46.53293" lon="4.52321">
        <ele>264.59799194336</ele>
        <time>2018-08-22T09:50:58Z</time>
      </trkpt>
      <trkpt lat="46.53288" lon="4.52313">
        <ele>263.59799194336</ele>
        <time>2018-08-22T09:51:06Z</time>
      </trkpt>
      <trkpt lat="46.5328" lon="4.5231">
        <ele>260.59799194336</ele>
        <time>2018-08-22T09:51:11Z</time>
      </trkpt>
      <trkpt lat="46.53273" lon="4.52306">
        <ele>257.59799194336</ele>
        <time>2018-08-22T09:51:18Z</time>
      </trkpt>
      <trkpt lat="46.53261" lon="4.52293">
        <ele>257.59799194336</ele>
        <time>2018-08-22T09:51:27Z</time>
      </trkpt>
      <trkpt lat="46.53254" lon="4.52286">
        <ele>257.59799194336</ele>
        <time>2018-08-22T09:51:32Z</time>
      </trkpt>
      <trkpt lat="46.53248" lon="4.52276">
        <ele>259.59799194336</ele>
        <time>2018-08-22T09:51:37Z</time>
      </trkpt>
      <trkpt lat="46.5324" lon="4.52275">
        <ele>257.59799194336</ele>
        <time>2018-08-22T09:51:47Z</time>
      </trkpt>
      <trkpt lat="46.53234" lon="4.52267">
        <ele>257.59799194336</ele>
        <time>2018-08-22T09:51:52Z</time>
      </trkpt>
      <trkpt lat="46.53223" lon="4.52252">
        <ele>258.59799194336</ele>
        <time>2018-08-22T09:52:04Z</time>
      </trkpt>
      <trkpt lat="46.53215" lon="4.52246">
        <ele>257.59799194336</ele>
        <time>2018-08-22T09:52:10Z</time>
      </trkpt>
      <trkpt lat="46.532" lon="4.52233">
        <ele>256.59799194336</ele>
        <time>2018-08-22T09:52:20Z</time>
      </trkpt>
      <trkpt lat="46.53191" lon="4.52228">
        <ele>257.59799194336</ele>
        <time>2018-08-22T09:52:25Z</time>
      </trkpt>
      <trkpt lat="46.53178" lon="4.52218">
        <ele>260.59799194336</ele>
        <time>2018-08-22T09:52:35Z</time>
      </trkpt>
      <trkpt lat="46.53165" lon="4.52206">
        <ele>262.59799194336</ele>
        <time>2018-08-22T09:52:45Z</time>
      </trkpt>
      <trkpt lat="46.53158" lon="4.52199">
        <ele>259.59799194336</ele>
        <time>2018-08-22T09:52:53Z</time>
      </trkpt>
      <trkpt lat="46.53152" lon="4.52192">
        <ele>265.59799194336</ele>
        <time>2018-08-22T09:53:04Z</time>
      </trkpt>
      <trkpt lat="46.53144" lon="4.52172">
        <ele>268.59799194336</ele>
        <time>2018-08-22T09:53:12Z</time>
      </trkpt>
      <trkpt lat="46.53141" lon="4.52163">
        <ele>262.59799194336</ele>
        <time>2018-08-22T09:53:19Z</time>
      </trkpt>
      <trkpt lat="46.53142" lon="4.52151">
        <ele>257.59799194336</ele>
        <time>2018-08-22T09:53:24Z</time>
      </trkpt>
      <trkpt lat="46.5314" lon="4.5214">
        <ele>259.59799194336</ele>
        <time>2018-08-22T09:53:29Z</time>
      </trkpt>
      <trkpt lat="46.53141" lon="4.52129">
        <ele>258.59799194336</ele>
        <time>2018-08-22T09:53:34Z</time>
      </trkpt>
      <trkpt lat="46.53137" lon="4.52118">
        <ele>257.59799194336</ele>
        <time>2018-08-22T09:53:39Z</time>
      </trkpt>
      <trkpt lat="46.53136" lon="4.52105">
        <ele>256.59799194336</ele>
        <time>2018-08-22T09:53:47Z</time>
      </trkpt>
      <trkpt lat="46.53134" lon="4.52094">
        <ele>256.59799194336</ele>
        <time>2018-08-22T09:53:52Z</time>
      </trkpt>
      <trkpt lat="46.53134" lon="4.52073">
        <ele>261.59799194336</ele>
        <time>2018-08-22T09:54:02Z</time>
      </trkpt>
      <trkpt lat="46.53132" lon="4.5205">
        <ele>261.59799194336</ele>
        <time>2018-08-22T09:54:14Z</time>
      </trkpt>
      <trkpt lat="46.53129" lon="4.52038">
        <ele>261.59799194336</ele>
        <time>2018-08-22T09:54:19Z</time>
      </trkpt>
      <trkpt lat="46.53128" lon="4.52025">
        <ele>260.59799194336</ele>
        <time>2018-08-22T09:54:26Z</time>
      </trkpt>
      <trkpt lat="46.53127" lon="4.52014">
        <ele>260.59799194336</ele>
        <time>2018-08-22T09:54:31Z</time>
      </trkpt>
      <trkpt lat="46.5313" lon="4.52004">
        <ele>261.59799194336</ele>
        <time>2018-08-22T09:54:37Z</time>
      </trkpt>
      <trkpt lat="46.53128" lon="4.51992">
        <ele>262.59799194336</ele>
        <time>2018-08-22T09:54:43Z</time>
      </trkpt>
      <trkpt lat="46.53127" lon="4.51979">
        <ele>260.59799194336</ele>
        <time>2018-08-22T09:54:49Z</time>
      </trkpt>
      <trkpt lat="46.53127" lon="4.51968">
        <ele>262.59799194336</ele>
        <time>2018-08-22T09:54:55Z</time>
      </trkpt>
      <trkpt lat="46.53129" lon="4.51957">
        <ele>265.59799194336</ele>
        <time>2018-08-22T09:55:01Z</time>
      </trkpt>
      <trkpt lat="46.53127" lon="4.51945">
        <ele>262.59799194336</ele>
        <time>2018-08-22T09:55:08Z</time>
      </trkpt>
      <trkpt lat="46.53128" lon="4.51935">
        <ele>259.59799194336</ele>
        <time>2018-08-22T09:55:14Z</time>
      </trkpt>
      <trkpt lat="46.53126" lon="4.51921">
        <ele>261.59799194336</ele>
        <time>2018-08-22T09:55:20Z</time>
      </trkpt>
      <trkpt lat="46.53124" lon="4.519">
        <ele>262.59698486328</ele>
        <time>2018-08-22T09:55:30Z</time>
      </trkpt>
      <trkpt lat="46.53124" lon="4.51887">
        <ele>266.59698486328</ele>
        <time>2018-08-22T09:55:35Z</time>
      </trkpt>
      <trkpt lat="46.53123" lon="4.51875">
        <ele>268.59698486328</ele>
        <time>2018-08-22T09:55:41Z</time>
      </trkpt>
      <trkpt lat="46.53119" lon="4.51865">
        <ele>264.59698486328</ele>
        <time>2018-08-22T09:55:48Z</time>
      </trkpt>
      <trkpt lat="46.53119" lon="4.51855">
        <ele>265.59698486328</ele>
        <time>2018-08-22T09:55:52Z</time>
      </trkpt>
      <trkpt lat="46.53116" lon="4.51845">
        <ele>262.59698486328</ele>
        <time>2018-08-22T09:55:59Z</time>
      </trkpt>
      <trkpt lat="46.53115" lon="4.51834">
        <ele>266.59698486328</ele>
        <time>2018-08-22T09:56:05Z</time>
      </trkpt>
      <trkpt lat="46.53111" lon="4.51824">
        <ele>268.59698486328</ele>
        <time>2018-08-22T09:56:10Z</time>
      </trkpt>
      <trkpt lat="46.53108" lon="4.51812">
        <ele>269.59698486328</ele>
        <time>2018-08-22T09:56:15Z</time>
      </trkpt>
      <trkpt lat="46.53108" lon="4.518">
        <ele>267.59698486328</ele>
        <time>2018-08-22T09:56:21Z</time>
      </trkpt>
      <trkpt lat="46.53107" lon="4.5179">
        <ele>269.59698486328</ele>
        <time>2018-08-22T09:56:26Z</time>
      </trkpt>
      <trkpt lat="46.53098" lon="4.51768">
        <ele>269.59698486328</ele>
        <time>2018-08-22T09:56:40Z</time>
      </trkpt>
      <trkpt lat="46.53093" lon="4.51759">
        <ele>269.59698486328</ele>
        <time>2018-08-22T09:56:49Z</time>
      </trkpt>
      <trkpt lat="46.53091" lon="4.51749">
        <ele>274.59698486328</ele>
        <time>2018-08-22T09:56:56Z</time>
      </trkpt>
      <trkpt lat="46.53089" lon="4.5174">
        <ele>275.59698486328</ele>
        <time>2018-08-22T09:57:10Z</time>
      </trkpt>
      <trkpt lat="46.53084" lon="4.51729">
        <ele>275.59698486328</ele>
        <time>2018-08-22T09:57:15Z</time>
      </trkpt>
      <trkpt lat="46.53081" lon="4.51719">
        <ele>275.59698486328</ele>
        <time>2018-08-22T09:57:20Z</time>
      </trkpt>
      <trkpt lat="46.53073" lon="4.51695">
        <ele>278.59698486328</ele>
        <time>2018-08-22T09:57:30Z</time>
      </trkpt>
      <trkpt lat="46.53064" lon="4.51677">
        <ele>278.59698486328</ele>
        <time>2018-08-22T09:57:40Z</time>
      </trkpt>
      <trkpt lat="46.53061" lon="4.51665">
        <ele>280.59698486328</ele>
        <time>2018-08-22T09:57:46Z</time>
      </trkpt>
      <trkpt lat="46.53055" lon="4.51642">
        <ele>283.59698486328</ele>
        <time>2018-08-22T09:57:57Z</time>
      </trkpt>
      <trkpt lat="46.53055" lon="4.5163">
        <ele>288.59698486328</ele>
        <time>2018-08-22T09:58:03Z</time>
      </trkpt>
      <trkpt lat="46.53053" lon="4.51618">
        <ele>289.59698486328</ele>
        <time>2018-08-22T09:58:09Z</time>
      </trkpt>
      <trkpt lat="46.53053" lon="4.51607">
        <ele>289.59698486328</ele>
        <time>2018-08-22T09:58:15Z</time>
      </trkpt>
      <trkpt lat="46.53053" lon="4.51597">
        <ele>291.59698486328</ele>
        <time>2018-08-22T09:58:21Z</time>
      </trkpt>
      <trkpt lat="46.53043" lon="4.5158">
        <ele>293.59698486328</ele>
        <time>2018-08-22T09:58:29Z</time>
      </trkpt>
      <trkpt lat="46.53037" lon="4.51572">
        <ele>293.59698486328</ele>
        <time>2018-08-22T09:58:34Z</time>
      </trkpt>
      <trkpt lat="46.53033" lon="4.51563">
        <ele>293.59698486328</ele>
        <time>2018-08-22T09:58:39Z</time>
      </trkpt>
      <trkpt lat="46.53031" lon="4.51551">
        <ele>294.59698486328</ele>
        <time>2018-08-22T09:58:45Z</time>
      </trkpt>
      <trkpt lat="46.5303" lon="4.5154">
        <ele>290.59698486328</ele>
        <time>2018-08-22T09:58:51Z</time>
      </trkpt>
      <trkpt lat="46.5303" lon="4.51529">
        <ele>289.59698486328</ele>
        <time>2018-08-22T09:58:58Z</time>
      </trkpt>
      <trkpt lat="46.53031" lon="4.51519">
        <ele>290.59698486328</ele>
        <time>2018-08-22T09:59:06Z</time>
      </trkpt>
      <trkpt lat="46.53031" lon="4.51508">
        <ele>288.59698486328</ele>
        <time>2018-08-22T09:59:11Z</time>
      </trkpt>
      <trkpt lat="46.53031" lon="4.51497">
        <ele>288.59698486328</ele>
        <time>2018-08-22T09:59:17Z</time>
      </trkpt>
      <trkpt lat="46.53031" lon="4.51484">
        <ele>292.59698486328</ele>
        <time>2018-08-22T09:59:23Z</time>
      </trkpt>
      <trkpt lat="46.5303" lon="4.51463">
        <ele>293.59698486328</ele>
        <time>2018-08-22T09:59:32Z</time>
      </trkpt>
      <trkpt lat="46.53032" lon="4.5145">
        <ele>291.59698486328</ele>
        <time>2018-08-22T09:59:38Z</time>
      </trkpt>
      <trkpt lat="46.53031" lon="4.51439">
        <ele>292.59698486328</ele>
        <time>2018-08-22T09:59:43Z</time>
      </trkpt>
      <trkpt lat="46.53028" lon="4.51427">
        <ele>291.59698486328</ele>
        <time>2018-08-22T09:59:48Z</time>
      </trkpt>
      <trkpt lat="46.53025" lon="4.51404">
        <ele>292.59698486328</ele>
        <time>2018-08-22T09:59:57Z</time>
      </trkpt>
      <trkpt lat="46.53025" lon="4.51393">
        <ele>290.59698486328</ele>
        <time>2018-08-22T10:00:05Z</time>
      </trkpt>
      <trkpt lat="46.53023" lon="4.51381">
        <ele>290.59698486328</ele>
        <time>2018-08-22T10:00:11Z</time>
      </trkpt>
      <trkpt lat="46.53022" lon="4.51369">
        <ele>292.59698486328</ele>
        <time>2018-08-22T10:00:16Z</time>
      </trkpt>
      <trkpt lat="46.53022" lon="4.51357">
        <ele>296.59698486328</ele>
        <time>2018-08-22T10:00:21Z</time>
      </trkpt>
      <trkpt lat="46.5302" lon="4.51344">
        <ele>291.59698486328</ele>
        <time>2018-08-22T10:00:28Z</time>
      </trkpt>
      <trkpt lat="46.53018" lon="4.51334">
        <ele>290.59698486328</ele>
        <time>2018-08-22T10:00:34Z</time>
      </trkpt>
      <trkpt lat="46.53016" lon="4.51323">
        <ele>286.59698486328</ele>
        <time>2018-08-22T10:00:39Z</time>
      </trkpt>
      <trkpt lat="46.53016" lon="4.5131">
        <ele>292.59698486328</ele>
        <time>2018-08-22T10:00:46Z</time>
      </trkpt>
      <trkpt lat="46.53013" lon="4.51299">
        <ele>292.59698486328</ele>
        <time>2018-08-22T10:00:52Z</time>
      </trkpt>
      <trkpt lat="46.53008" lon="4.51278">
        <ele>294.59698486328</ele>
        <time>2018-08-22T10:01:01Z</time>
      </trkpt>
      <trkpt lat="46.53006" lon="4.51268">
        <ele>292.59698486328</ele>
        <time>2018-08-22T10:01:05Z</time>
      </trkpt>
      <trkpt lat="46.5301" lon="4.51258">
        <ele>289.59698486328</ele>
        <time>2018-08-22T10:01:12Z</time>
      </trkpt>
      <trkpt lat="46.53011" lon="4.51246">
        <ele>291.59698486328</ele>
        <time>2018-08-22T10:01:18Z</time>
      </trkpt>
      <trkpt lat="46.53009" lon="4.51234">
        <ele>290.59698486328</ele>
        <time>2018-08-22T10:01:25Z</time>
      </trkpt>
      <trkpt lat="46.5301" lon="4.51224">
        <ele>292.59698486328</ele>
        <time>2018-08-22T10:01:31Z</time>
      </trkpt>
      <trkpt lat="46.53006" lon="4.51213">
        <ele>292.59698486328</ele>
        <time>2018-08-22T10:01:36Z</time>
      </trkpt>
      <trkpt lat="46.53007" lon="4.51202">
        <ele>290.59698486328</ele>
        <time>2018-08-22T10:01:41Z</time>
      </trkpt>
      <trkpt lat="46.53006" lon="4.5119">
        <ele>292.59698486328</ele>
        <time>2018-08-22T10:01:48Z</time>
      </trkpt>
      <trkpt lat="46.53004" lon="4.51179">
        <ele>289.59698486328</ele>
        <time>2018-08-22T10:01:52Z</time>
      </trkpt>
      <trkpt lat="46.53002" lon="4.51166">
        <ele>291.59698486328</ele>
        <time>2018-08-22T10:01:58Z</time>
      </trkpt>
      <trkpt lat="46.53002" lon="4.51155">
        <ele>289.59698486328</ele>
        <time>2018-08-22T10:02:03Z</time>
      </trkpt>
      <trkpt lat="46.52999" lon="4.51143">
        <ele>292.59698486328</ele>
        <time>2018-08-22T10:02:08Z</time>
      </trkpt>
      <trkpt lat="46.53" lon="4.51131">
        <ele>293.59698486328</ele>
        <time>2018-08-22T10:02:15Z</time>
      </trkpt>
      <trkpt lat="46.53" lon="4.51121">
        <ele>291.59698486328</ele>
        <time>2018-08-22T10:02:21Z</time>
      </trkpt>
      <trkpt lat="46.53" lon="4.51108">
        <ele>290.59698486328</ele>
        <time>2018-08-22T10:02:26Z</time>
      </trkpt>
      <trkpt lat="46.53001" lon="4.51096">
        <ele>289.59698486328</ele>
        <time>2018-08-22T10:02:32Z</time>
      </trkpt>
      <trkpt lat="46.52999" lon="4.51084">
        <ele>288.59698486328</ele>
        <time>2018-08-22T10:02:37Z</time>
      </trkpt>
      <trkpt lat="46.52999" lon="4.51073">
        <ele>290.59698486328</ele>
        <time>2018-08-22T10:02:42Z</time>
      </trkpt>
      <trkpt lat="46.52997" lon="4.51063">
        <ele>290.59698486328</ele>
        <time>2018-08-22T10:02:48Z</time>
      </trkpt>
      <trkpt lat="46.52997" lon="4.51052">
        <ele>289.59698486328</ele>
        <time>2018-08-22T10:02:53Z</time>
      </trkpt>
      <trkpt lat="46.52996" lon="4.51041">
        <ele>287.59698486328</ele>
        <time>2018-08-22T10:02:59Z</time>
      </trkpt>
      <trkpt lat="46.52989" lon="4.51035">
        <ele>286.59600830078</ele>
        <time>2018-08-22T10:03:05Z</time>
      </trkpt>
      <trkpt lat="46.52982" lon="4.51042">
        <ele>283.59600830078</ele>
        <time>2018-08-22T10:03:11Z</time>
      </trkpt>
      <trkpt lat="46.52975" lon="4.5104">
        <ele>285.59600830078</ele>
        <time>2018-08-22T10:03:16Z</time>
      </trkpt>
      <trkpt lat="46.52967" lon="4.51042">
        <ele>288.59600830078</ele>
        <time>2018-08-22T10:03:23Z</time>
      </trkpt>
      <trkpt lat="46.52951" lon="4.51047">
        <ele>283.59600830078</ele>
        <time>2018-08-22T10:03:33Z</time>
      </trkpt>
      <trkpt lat="46.52942" lon="4.5105">
        <ele>282.59600830078</ele>
        <time>2018-08-22T10:03:38Z</time>
      </trkpt>
      <trkpt lat="46.52934" lon="4.51052">
        <ele>285.59600830078</ele>
        <time>2018-08-22T10:03:44Z</time>
      </trkpt>
      <trkpt lat="46.52926" lon="4.51056">
        <ele>285.59600830078</ele>
        <time>2018-08-22T10:03:50Z</time>
      </trkpt>
      <trkpt lat="46.52917" lon="4.51057">
        <ele>285.59600830078</ele>
        <time>2018-08-22T10:03:56Z</time>
      </trkpt>
      <trkpt lat="46.52918" lon="4.51073">
        <ele>285.59600830078</ele>
        <time>2018-08-22T10:04:00Z</time>
      </trkpt>
      <trkpt lat="46.52911" lon="4.51075">
        <ele>284.59600830078</ele>
        <time>2018-08-22T10:04:05Z</time>
      </trkpt>
      <trkpt lat="46.52907" lon="4.51084">
        <ele>283.59600830078</ele>
        <time>2018-08-22T10:04:13Z</time>
      </trkpt>
      <trkpt lat="46.52899" lon="4.51089">
        <ele>282.59600830078</ele>
        <time>2018-08-22T10:04:19Z</time>
      </trkpt>
      <trkpt lat="46.52884" lon="4.51095">
        <ele>280.59600830078</ele>
        <time>2018-08-22T10:04:28Z</time>
      </trkpt>
      <trkpt lat="46.52868" lon="4.511">
        <ele>277.59600830078</ele>
        <time>2018-08-22T10:04:37Z</time>
      </trkpt>
      <trkpt lat="46.52862" lon="4.51105">
        <ele>274.59600830078</ele>
        <time>2018-08-22T10:04:42Z</time>
      </trkpt>
      <trkpt lat="46.52856" lon="4.51114">
        <ele>274.59600830078</ele>
        <time>2018-08-22T10:04:49Z</time>
      </trkpt>
      <trkpt lat="46.5285" lon="4.5112">
        <ele>275.59600830078</ele>
        <time>2018-08-22T10:04:58Z</time>
      </trkpt>
      <trkpt lat="46.52841" lon="4.51121">
        <ele>274.59600830078</ele>
        <time>2018-08-22T10:05:03Z</time>
      </trkpt>
      <trkpt lat="46.52825" lon="4.51125">
        <ele>275.59600830078</ele>
        <time>2018-08-22T10:05:13Z</time>
      </trkpt>
      <trkpt lat="46.52817" lon="4.51127">
        <ele>273.59600830078</ele>
        <time>2018-08-22T10:05:18Z</time>
      </trkpt>
      <trkpt lat="46.52801" lon="4.51133">
        <ele>273.59600830078</ele>
        <time>2018-08-22T10:05:27Z</time>
      </trkpt>
      <trkpt lat="46.52793" lon="4.51133">
        <ele>271.59600830078</ele>
        <time>2018-08-22T10:05:33Z</time>
      </trkpt>
      <trkpt lat="46.52786" lon="4.51138">
        <ele>274.59600830078</ele>
        <time>2018-08-22T10:05:38Z</time>
      </trkpt>
      <trkpt lat="46.52778" lon="4.51139">
        <ele>275.59600830078</ele>
        <time>2018-08-22T10:05:43Z</time>
      </trkpt>
      <trkpt lat="46.5277" lon="4.51143">
        <ele>272.59600830078</ele>
        <time>2018-08-22T10:05:49Z</time>
      </trkpt>
      <trkpt lat="46.52764" lon="4.51149">
        <ele>269.59600830078</ele>
        <time>2018-08-22T10:05:56Z</time>
      </trkpt>
      <trkpt lat="46.52756" lon="4.51149">
        <ele>268.59600830078</ele>
        <time>2018-08-22T10:06:01Z</time>
      </trkpt>
      <trkpt lat="46.52748" lon="4.51154">
        <ele>268.59600830078</ele>
        <time>2018-08-22T10:06:06Z</time>
      </trkpt>
      <trkpt lat="46.52741" lon="4.51158">
        <ele>266.59600830078</ele>
        <time>2018-08-22T10:06:11Z</time>
      </trkpt>
      <trkpt lat="46.52733" lon="4.51163">
        <ele>263.59600830078</ele>
        <time>2018-08-22T10:06:17Z</time>
      </trkpt>
      <trkpt lat="46.52726" lon="4.51167">
        <ele>262.59600830078</ele>
        <time>2018-08-22T10:06:22Z</time>
      </trkpt>
      <trkpt lat="46.52718" lon="4.5117">
        <ele>265.59600830078</ele>
        <time>2018-08-22T10:06:29Z</time>
      </trkpt>
      <trkpt lat="46.52711" lon="4.51176">
        <ele>268.59600830078</ele>
        <time>2018-08-22T10:06:35Z</time>
      </trkpt>
      <trkpt lat="46.52704" lon="4.51175">
        <ele>268.59600830078</ele>
        <time>2018-08-22T10:06:41Z</time>
      </trkpt>
      <trkpt lat="46.52697" lon="4.5118">
        <ele>271.59600830078</ele>
        <time>2018-08-22T10:06:47Z</time>
      </trkpt>
      <trkpt lat="46.5269" lon="4.51179">
        <ele>273.59600830078</ele>
        <time>2018-08-22T10:06:55Z</time>
      </trkpt>
      <trkpt lat="46.52682" lon="4.51179">
        <ele>270.59600830078</ele>
        <time>2018-08-22T10:06:59Z</time>
      </trkpt>
      <trkpt lat="46.52672" lon="4.51189">
        <ele>268.59600830078</ele>
        <time>2018-08-22T10:07:08Z</time>
      </trkpt>
      <trkpt lat="46.52654" lon="4.51186">
        <ele>268.59600830078</ele>
        <time>2018-08-22T10:07:16Z</time>
      </trkpt>
      <trkpt lat="46.52646" lon="4.51187">
        <ele>271.59600830078</ele>
        <time>2018-08-22T10:07:22Z</time>
      </trkpt>
      <trkpt lat="46.52638" lon="4.51182">
        <ele>272.59600830078</ele>
        <time>2018-08-22T10:07:26Z</time>
      </trkpt>
      <trkpt lat="46.52631" lon="4.51187">
        <ele>268.59600830078</ele>
        <time>2018-08-22T10:07:32Z</time>
      </trkpt>
      <trkpt lat="46.52626" lon="4.51194">
        <ele>272.59600830078</ele>
        <time>2018-08-22T10:07:38Z</time>
      </trkpt>
      <trkpt lat="46.52617" lon="4.51196">
        <ele>273.59600830078</ele>
        <time>2018-08-22T10:07:44Z</time>
      </trkpt>
      <trkpt lat="46.52609" lon="4.51203">
        <ele>275.59600830078</ele>
        <time>2018-08-22T10:07:52Z</time>
      </trkpt>
      <trkpt lat="46.52603" lon="4.51209">
        <ele>277.59600830078</ele>
        <time>2018-08-22T10:07:57Z</time>
      </trkpt>
      <trkpt lat="46.52596" lon="4.51215">
        <ele>275.59600830078</ele>
        <time>2018-08-22T10:08:04Z</time>
      </trkpt>
      <trkpt lat="46.52583" lon="4.51227">
        <ele>274.59600830078</ele>
        <time>2018-08-22T10:08:13Z</time>
      </trkpt>
      <trkpt lat="46.52578" lon="4.51236">
        <ele>276.59600830078</ele>
        <time>2018-08-22T10:08:20Z</time>
      </trkpt>
      <trkpt lat="46.52572" lon="4.51243">
        <ele>274.5950012207</ele>
        <time>2018-08-22T10:08:25Z</time>
      </trkpt>
      <trkpt lat="46.52564" lon="4.51247">
        <ele>272.5950012207</ele>
        <time>2018-08-22T10:08:30Z</time>
      </trkpt>
      <trkpt lat="46.52558" lon="4.51255">
        <ele>270.5950012207</ele>
        <time>2018-08-22T10:08:38Z</time>
      </trkpt>
      <trkpt lat="46.5255" lon="4.51261">
        <ele>270.5950012207</ele>
        <time>2018-08-22T10:08:43Z</time>
      </trkpt>
      <trkpt lat="46.52543" lon="4.51265">
        <ele>272.5950012207</ele>
        <time>2018-08-22T10:08:48Z</time>
      </trkpt>
      <trkpt lat="46.52535" lon="4.51265">
        <ele>274.5950012207</ele>
        <time>2018-08-22T10:08:53Z</time>
      </trkpt>
      <trkpt lat="46.52528" lon="4.51267">
        <ele>278.5950012207</ele>
        <time>2018-08-22T10:08:58Z</time>
      </trkpt>
      <trkpt lat="46.5252" lon="4.51271">
        <ele>278.5950012207</ele>
        <time>2018-08-22T10:09:03Z</time>
      </trkpt>
      <trkpt lat="46.52513" lon="4.51274">
        <ele>282.5950012207</ele>
        <time>2018-08-22T10:09:08Z</time>
      </trkpt>
      <trkpt lat="46.52504" lon="4.51272">
        <ele>279.5950012207</ele>
        <time>2018-08-22T10:09:15Z</time>
      </trkpt>
      <trkpt lat="46.52496" lon="4.51274">
        <ele>278.5950012207</ele>
        <time>2018-08-22T10:09:21Z</time>
      </trkpt>
      <trkpt lat="46.5249" lon="4.51282">
        <ele>277.5950012207</ele>
        <time>2018-08-22T10:09:28Z</time>
      </trkpt>
      <trkpt lat="46.52483" lon="4.51284">
        <ele>278.5950012207</ele>
        <time>2018-08-22T10:09:33Z</time>
      </trkpt>
      <trkpt lat="46.52474" lon="4.51285">
        <ele>276.5950012207</ele>
        <time>2018-08-22T10:09:39Z</time>
      </trkpt>
      <trkpt lat="46.52466" lon="4.51283">
        <ele>273.5950012207</ele>
        <time>2018-08-22T10:09:44Z</time>
      </trkpt>
      <trkpt lat="46.52457" lon="4.51282">
        <ele>273.5950012207</ele>
        <time>2018-08-22T10:09:51Z</time>
      </trkpt>
      <trkpt lat="46.5245" lon="4.51285">
        <ele>273.5950012207</ele>
        <time>2018-08-22T10:09:56Z</time>
      </trkpt>
      <trkpt lat="46.52442" lon="4.51286">
        <ele>270.5950012207</ele>
        <time>2018-08-22T10:10:01Z</time>
      </trkpt>
      <trkpt lat="46.52434" lon="4.51285">
        <ele>271.5950012207</ele>
        <time>2018-08-22T10:10:07Z</time>
      </trkpt>
      <trkpt lat="46.52426" lon="4.51284">
        <ele>273.5950012207</ele>
        <time>2018-08-22T10:10:13Z</time>
      </trkpt>
      <trkpt lat="46.52419" lon="4.51281">
        <ele>274.5950012207</ele>
        <time>2018-08-22T10:10:18Z</time>
      </trkpt>
      <trkpt lat="46.52411" lon="4.51283">
        <ele>276.5950012207</ele>
        <time>2018-08-22T10:10:23Z</time>
      </trkpt>
      <trkpt lat="46.52403" lon="4.51281">
        <ele>278.5950012207</ele>
        <time>2018-08-22T10:10:30Z</time>
      </trkpt>
      <trkpt lat="46.52395" lon="4.51281">
        <ele>277.5950012207</ele>
        <time>2018-08-22T10:10:35Z</time>
      </trkpt>
      <trkpt lat="46.52385" lon="4.51281">
        <ele>278.5950012207</ele>
        <time>2018-08-22T10:10:40Z</time>
      </trkpt>
      <trkpt lat="46.52378" lon="4.51284">
        <ele>281.5950012207</ele>
        <time>2018-08-22T10:10:46Z</time>
      </trkpt>
      <trkpt lat="46.52371" lon="4.5129">
        <ele>282.5950012207</ele>
        <time>2018-08-22T10:10:55Z</time>
      </trkpt>
      <trkpt lat="46.52365" lon="4.51298">
        <ele>282.5950012207</ele>
        <time>2018-08-22T10:11:02Z</time>
      </trkpt>
      <trkpt lat="46.52361" lon="4.51306">
        <ele>283.5950012207</ele>
        <time>2018-08-22T10:11:08Z</time>
      </trkpt>
      <trkpt lat="46.52354" lon="4.51312">
        <ele>285.5950012207</ele>
        <time>2018-08-22T10:11:14Z</time>
      </trkpt>
      <trkpt lat="46.52347" lon="4.5132">
        <ele>282.5950012207</ele>
        <time>2018-08-22T10:11:20Z</time>
      </trkpt>
      <trkpt lat="46.52341" lon="4.51325">
        <ele>283.5950012207</ele>
        <time>2018-08-22T10:11:27Z</time>
      </trkpt>
      <trkpt lat="46.52338" lon="4.51336">
        <ele>283.5950012207</ele>
        <time>2018-08-22T10:11:33Z</time>
      </trkpt>
      <trkpt lat="46.52331" lon="4.51341">
        <ele>283.5950012207</ele>
        <time>2018-08-22T10:11:40Z</time>
      </trkpt>
      <trkpt lat="46.52324" lon="4.51345">
        <ele>281.5950012207</ele>
        <time>2018-08-22T10:11:45Z</time>
      </trkpt>
      <trkpt lat="46.52318" lon="4.51353">
        <ele>281.5950012207</ele>
        <time>2018-08-22T10:11:50Z</time>
      </trkpt>
      <trkpt lat="46.52307" lon="4.51368">
        <ele>275.5950012207</ele>
        <time>2018-08-22T10:12:21Z</time>
      </trkpt>
      <trkpt lat="46.523" lon="4.51374">
        <ele>275.5950012207</ele>
        <time>2018-08-22T10:12:26Z</time>
      </trkpt>
      <trkpt lat="46.52291" lon="4.51392">
        <ele>276.5950012207</ele>
        <time>2018-08-22T10:12:38Z</time>
      </trkpt>
      <trkpt lat="46.52286" lon="4.51399">
        <ele>277.5950012207</ele>
        <time>2018-08-22T10:12:43Z</time>
      </trkpt>
      <trkpt lat="46.5228" lon="4.51408">
        <ele>278.5950012207</ele>
        <time>2018-08-22T10:12:48Z</time>
      </trkpt>
      <trkpt lat="46.52273" lon="4.51413">
        <ele>275.5950012207</ele>
        <time>2018-08-22T10:12:54Z</time>
      </trkpt>
      <trkpt lat="46.52268" lon="4.51424">
        <ele>273.5950012207</ele>
        <time>2018-08-22T10:13:00Z</time>
      </trkpt>
      <trkpt lat="46.52263" lon="4.51435">
        <ele>270.5950012207</ele>
        <time>2018-08-22T10:13:05Z</time>
      </trkpt>
      <trkpt lat="46.52258" lon="4.51443">
        <ele>266.5950012207</ele>
        <time>2018-08-22T10:13:12Z</time>
      </trkpt>
      <trkpt lat="46.52252" lon="4.51451">
        <ele>268.5950012207</ele>
        <time>2018-08-22T10:13:18Z</time>
      </trkpt>
      <trkpt lat="46.52248" lon="4.5146">
        <ele>263.5950012207</ele>
        <time>2018-08-22T10:13:25Z</time>
      </trkpt>
      <trkpt lat="46.52243" lon="4.5147">
        <ele>265.5950012207</ele>
        <time>2018-08-22T10:13:29Z</time>
      </trkpt>
      <trkpt lat="46.52238" lon="4.51478">
        <ele>267.5950012207</ele>
        <time>2018-08-22T10:13:36Z</time>
      </trkpt>
      <trkpt lat="46.52231" lon="4.51485">
        <ele>265.5950012207</ele>
        <time>2018-08-22T10:13:41Z</time>
      </trkpt>
      <trkpt lat="46.52226" lon="4.51504">
        <ele>265.5950012207</ele>
        <time>2018-08-22T10:13:51Z</time>
      </trkpt>
      <trkpt lat="46.52222" lon="4.51514">
        <ele>268.5950012207</ele>
        <time>2018-08-22T10:13:56Z</time>
      </trkpt>
      <trkpt lat="46.52217" lon="4.51523">
        <ele>263.5950012207</ele>
        <time>2018-08-22T10:14:03Z</time>
      </trkpt>
      <trkpt lat="46.52213" lon="4.51534">
        <ele>258.5950012207</ele>
        <time>2018-08-22T10:14:10Z</time>
      </trkpt>
      <trkpt lat="46.52202" lon="4.51551">
        <ele>264.5950012207</ele>
        <time>2018-08-22T10:14:19Z</time>
      </trkpt>
      <trkpt lat="46.52197" lon="4.51561">
        <ele>267.5950012207</ele>
        <time>2018-08-22T10:14:25Z</time>
      </trkpt>
      <trkpt lat="46.52191" lon="4.51567">
        <ele>263.5950012207</ele>
        <time>2018-08-22T10:14:32Z</time>
      </trkpt>
      <trkpt lat="46.52186" lon="4.51575">
        <ele>264.5950012207</ele>
        <time>2018-08-22T10:14:37Z</time>
      </trkpt>
      <trkpt lat="46.52181" lon="4.51585">
        <ele>261.5950012207</ele>
        <time>2018-08-22T10:14:44Z</time>
      </trkpt>
      <trkpt lat="46.52177" lon="4.51593">
        <ele>262.5950012207</ele>
        <time>2018-08-22T10:14:49Z</time>
      </trkpt>
      <trkpt lat="46.52172" lon="4.51601">
        <ele>262.5950012207</ele>
        <time>2018-08-22T10:14:54Z</time>
      </trkpt>
      <trkpt lat="46.52168" lon="4.5161">
        <ele>256.5950012207</ele>
        <time>2018-08-22T10:15:01Z</time>
      </trkpt>
      <trkpt lat="46.52162" lon="4.51618">
        <ele>255.5950012207</ele>
        <time>2018-08-22T10:15:06Z</time>
      </trkpt>
      <trkpt lat="46.5215" lon="4.51638">
        <ele>259.5950012207</ele>
        <time>2018-08-22T10:15:14Z</time>
      </trkpt>
      <trkpt lat="46.52147" lon="4.51648">
        <ele>264.5950012207</ele>
        <time>2018-08-22T10:15:20Z</time>
      </trkpt>
      <trkpt lat="46.52142" lon="4.51657">
        <ele>264.5950012207</ele>
        <time>2018-08-22T10:15:25Z</time>
      </trkpt>
      <trkpt lat="46.52139" lon="4.51667">
        <ele>261.5950012207</ele>
        <time>2018-08-22T10:15:31Z</time>
      </trkpt>
      <trkpt lat="46.52133" lon="4.51676">
        <ele>258.5950012207</ele>
        <time>2018-08-22T10:15:37Z</time>
      </trkpt>
      <trkpt lat="46.52125" lon="4.51685">
        <ele>261.5950012207</ele>
        <time>2018-08-22T10:15:42Z</time>
      </trkpt>
      <trkpt lat="46.52117" lon="4.51688">
        <ele>262.5950012207</ele>
        <time>2018-08-22T10:15:48Z</time>
      </trkpt>
      <trkpt lat="46.52111" lon="4.51695">
        <ele>258.5950012207</ele>
        <time>2018-08-22T10:15:53Z</time>
      </trkpt>
      <trkpt lat="46.52096" lon="4.51707">
        <ele>260.5950012207</ele>
        <time>2018-08-22T10:16:03Z</time>
      </trkpt>
      <trkpt lat="46.52088" lon="4.51708">
        <ele>257.5950012207</ele>
        <time>2018-08-22T10:16:08Z</time>
      </trkpt>
      <trkpt lat="46.52082" lon="4.51715">
        <ele>250.59399414062</ele>
        <time>2018-08-22T10:16:14Z</time>
      </trkpt>
      <trkpt lat="46.52075" lon="4.5172">
        <ele>248.59399414062</ele>
        <time>2018-08-22T10:16:19Z</time>
      </trkpt>
      <trkpt lat="46.52068" lon="4.51724">
        <ele>249.59399414062</ele>
        <time>2018-08-22T10:16:25Z</time>
      </trkpt>
      <trkpt lat="46.52063" lon="4.51733">
        <ele>247.59399414062</ele>
        <time>2018-08-22T10:16:30Z</time>
      </trkpt>
      <trkpt lat="46.52057" lon="4.51742">
        <ele>242.59399414062</ele>
        <time>2018-08-22T10:16:36Z</time>
      </trkpt>
      <trkpt lat="46.5205" lon="4.51745">
        <ele>241.59399414062</ele>
        <time>2018-08-22T10:16:43Z</time>
      </trkpt>
      <trkpt lat="46.52033" lon="4.51756">
        <ele>248.59399414062</ele>
        <time>2018-08-22T10:16:52Z</time>
      </trkpt>
      <trkpt lat="46.52026" lon="4.51759">
        <ele>248.59399414062</ele>
        <time>2018-08-22T10:16:56Z</time>
      </trkpt>
      <trkpt lat="46.52016" lon="4.51761">
        <ele>248.59399414062</ele>
        <time>2018-08-22T10:17:02Z</time>
      </trkpt>
      <trkpt lat="46.52009" lon="4.51762">
        <ele>251.59399414062</ele>
        <time>2018-08-22T10:17:08Z</time>
      </trkpt>
      <trkpt lat="46.52" lon="4.51762">
        <ele>250.59399414062</ele>
        <time>2018-08-22T10:17:13Z</time>
      </trkpt>
      <trkpt lat="46.51986" lon="4.51768">
        <ele>252.59399414062</ele>
        <time>2018-08-22T10:17:23Z</time>
      </trkpt>
      <trkpt lat="46.51978" lon="4.51769">
        <ele>251.59399414062</ele>
        <time>2018-08-22T10:17:28Z</time>
      </trkpt>
      <trkpt lat="46.51971" lon="4.51772">
        <ele>256.59399414062</ele>
        <time>2018-08-22T10:17:32Z</time>
      </trkpt>
      <trkpt lat="46.51964" lon="4.51777">
        <ele>255.59399414062</ele>
        <time>2018-08-22T10:17:37Z</time>
      </trkpt>
      <trkpt lat="46.51958" lon="4.51784">
        <ele>255.59399414062</ele>
        <time>2018-08-22T10:17:44Z</time>
      </trkpt>
      <trkpt lat="46.51951" lon="4.51793">
        <ele>258.59399414062</ele>
        <time>2018-08-22T10:17:50Z</time>
      </trkpt>
      <trkpt lat="46.51944" lon="4.51797">
        <ele>258.59399414062</ele>
        <time>2018-08-22T10:17:55Z</time>
      </trkpt>
      <trkpt lat="46.51936" lon="4.51804">
        <ele>254.59399414062</ele>
        <time>2018-08-22T10:18:05Z</time>
      </trkpt>
      <trkpt lat="46.51921" lon="4.51803">
        <ele>256.59399414062</ele>
        <time>2018-08-22T10:18:15Z</time>
      </trkpt>
      <trkpt lat="46.51914" lon="4.51807">
        <ele>257.59399414062</ele>
        <time>2018-08-22T10:18:21Z</time>
      </trkpt>
      <trkpt lat="46.51906" lon="4.51802">
        <ele>253.59399414062</ele>
        <time>2018-08-22T10:18:28Z</time>
      </trkpt>
      <trkpt lat="46.51897" lon="4.51795">
        <ele>252.59399414062</ele>
        <time>2018-08-22T10:18:34Z</time>
      </trkpt>
      <trkpt lat="46.51891" lon="4.51789">
        <ele>252.59399414062</ele>
        <time>2018-08-22T10:18:36Z</time>
      </trkpt>
      <trkpt lat="46.51883" lon="4.51787">
        <ele>250.59399414062</ele>
        <time>2018-08-22T10:18:46Z</time>
      </trkpt>
      <trkpt lat="46.51866" lon="4.51784">
        <ele>249.59399414062</ele>
        <time>2018-08-22T10:18:55Z</time>
      </trkpt>
      <trkpt lat="46.51858" lon="4.51783">
        <ele>250.59399414062</ele>
        <time>2018-08-22T10:19:03Z</time>
      </trkpt>
      <trkpt lat="46.51849" lon="4.5178">
        <ele>252.59399414062</ele>
        <time>2018-08-22T10:19:11Z</time>
      </trkpt>
      <trkpt lat="46.51843" lon="4.51774">
        <ele>250.59399414062</ele>
        <time>2018-08-22T10:19:19Z</time>
      </trkpt>
      <trkpt lat="46.51833" lon="4.51772">
        <ele>248.59399414062</ele>
        <time>2018-08-22T10:19:27Z</time>
      </trkpt>
      <trkpt lat="46.51826" lon="4.51767">
        <ele>250.59399414062</ele>
        <time>2018-08-22T10:19:34Z</time>
      </trkpt>
      <trkpt lat="46.5181" lon="4.51761">
        <ele>250.59399414062</ele>
        <time>2018-08-22T10:19:49Z</time>
      </trkpt>
      <trkpt lat="46.51803" lon="4.51756">
        <ele>252.59399414062</ele>
        <time>2018-08-22T10:19:59Z</time>
      </trkpt>
      <trkpt lat="46.51789" lon="4.51745">
        <ele>247.59399414062</ele>
        <time>2018-08-22T10:20:08Z</time>
      </trkpt>
      <trkpt lat="46.51782" lon="4.51737">
        <ele>251.59399414062</ele>
        <time>2018-08-22T10:20:13Z</time>
      </trkpt>
      <trkpt lat="46.51775" lon="4.51727">
        <ele>257.59399414062</ele>
        <time>2018-08-22T10:20:18Z</time>
      </trkpt>
      <trkpt lat="46.51767" lon="4.51719">
        <ele>260.59399414062</ele>
        <time>2018-08-22T10:20:23Z</time>
      </trkpt>
      <trkpt lat="46.5176" lon="4.51714">
        <ele>264.59399414062</ele>
        <time>2018-08-22T10:20:30Z</time>
      </trkpt>
      <trkpt lat="46.51753" lon="4.51708">
        <ele>263.59399414062</ele>
        <time>2018-08-22T10:20:38Z</time>
      </trkpt>
      <trkpt lat="46.51746" lon="4.51704">
        <ele>268.59399414062</ele>
        <time>2018-08-22T10:20:44Z</time>
      </trkpt>
      <trkpt lat="46.51738" lon="4.51699">
        <ele>267.59399414062</ele>
        <time>2018-08-22T10:21:01Z</time>
      </trkpt>
      <trkpt lat="46.51729" lon="4.51695">
        <ele>268.59399414062</ele>
        <time>2018-08-22T10:21:05Z</time>
      </trkpt>
      <trkpt lat="46.51714" lon="4.51684">
        <ele>268.59298706055</ele>
        <time>2018-08-22T10:21:14Z</time>
      </trkpt>
      <trkpt lat="46.51706" lon="4.51682">
        <ele>270.59298706055</ele>
        <time>2018-08-22T10:21:19Z</time>
      </trkpt>
      <trkpt lat="46.51699" lon="4.51678">
        <ele>269.59298706055</ele>
        <time>2018-08-22T10:21:22Z</time>
      </trkpt>
      <trkpt lat="46.51684" lon="4.51672">
        <ele>268.59298706055</ele>
        <time>2018-08-22T10:21:31Z</time>
      </trkpt>
      <trkpt lat="46.51676" lon="4.51669">
        <ele>270.59298706055</ele>
        <time>2018-08-22T10:21:35Z</time>
      </trkpt>
      <trkpt lat="46.51667" lon="4.51665">
        <ele>266.59298706055</ele>
        <time>2018-08-22T10:21:41Z</time>
      </trkpt>
      <trkpt lat="46.51661" lon="4.51658">
        <ele>263.59298706055</ele>
        <time>2018-08-22T10:21:46Z</time>
      </trkpt>
      <trkpt lat="46.51653" lon="4.51654">
        <ele>262.59298706055</ele>
        <time>2018-08-22T10:21:51Z</time>
      </trkpt>
      <trkpt lat="46.51646" lon="4.51651">
        <ele>266.59298706055</ele>
        <time>2018-08-22T10:21:56Z</time>
      </trkpt>
      <trkpt lat="46.51638" lon="4.51648">
        <ele>272.59298706055</ele>
        <time>2018-08-22T10:22:03Z</time>
      </trkpt>
      <trkpt lat="46.51631" lon="4.51643">
        <ele>274.59298706055</ele>
        <time>2018-08-22T10:22:08Z</time>
      </trkpt>
      <trkpt lat="46.51625" lon="4.51636">
        <ele>274.59298706055</ele>
        <time>2018-08-22T10:22:13Z</time>
      </trkpt>
      <trkpt lat="46.51619" lon="4.51629">
        <ele>270.59298706055</ele>
        <time>2018-08-22T10:22:22Z</time>
      </trkpt>
      <trkpt lat="46.51618" lon="4.51618">
        <ele>270.59298706055</ele>
        <time>2018-08-22T10:22:31Z</time>
      </trkpt>
      <trkpt lat="46.51621" lon="4.51608">
        <ele>272.59298706055</ele>
        <time>2018-08-22T10:22:36Z</time>
      </trkpt>
      <trkpt lat="46.5162" lon="4.51596">
        <ele>275.59298706055</ele>
        <time>2018-08-22T10:22:41Z</time>
      </trkpt>
      <trkpt lat="46.51627" lon="4.51587">
        <ele>278.59298706055</ele>
        <time>2018-08-22T10:22:46Z</time>
      </trkpt>
      <trkpt lat="46.5163" lon="4.51575">
        <ele>281.59298706055</ele>
        <time>2018-08-22T10:22:53Z</time>
      </trkpt>
      <trkpt lat="46.51627" lon="4.51563">
        <ele>282.59298706055</ele>
        <time>2018-08-22T10:22:58Z</time>
      </trkpt>
      <trkpt lat="46.51632" lon="4.51553">
        <ele>286.59298706055</ele>
        <time>2018-08-22T10:23:04Z</time>
      </trkpt>
      <trkpt lat="46.5164" lon="4.51544">
        <ele>284.59298706055</ele>
        <time>2018-08-22T10:23:10Z</time>
      </trkpt>
      <trkpt lat="46.51646" lon="4.5153">
        <ele>285.59298706055</ele>
        <time>2018-08-22T10:23:18Z</time>
      </trkpt>
      <trkpt lat="46.51644" lon="4.51519">
        <ele>287.59298706055</ele>
        <time>2018-08-22T10:23:24Z</time>
      </trkpt>
      <trkpt lat="46.51656" lon="4.51503">
        <ele>286.59298706055</ele>
        <time>2018-08-22T10:23:35Z</time>
      </trkpt>
      <trkpt lat="46.5166" lon="4.51493">
        <ele>283.59298706055</ele>
        <time>2018-08-22T10:23:40Z</time>
      </trkpt>
      <trkpt lat="46.51664" lon="4.51484">
        <ele>283.59298706055</ele>
        <time>2018-08-22T10:23:45Z</time>
      </trkpt>
      <trkpt lat="46.51663" lon="4.51472">
        <ele>284.59298706055</ele>
        <time>2018-08-22T10:23:50Z</time>
      </trkpt>
      <trkpt lat="46.51668" lon="4.51463">
        <ele>280.59298706055</ele>
        <time>2018-08-22T10:23:55Z</time>
      </trkpt>
      <trkpt lat="46.51672" lon="4.51453">
        <ele>279.59298706055</ele>
        <time>2018-08-22T10:24:00Z</time>
      </trkpt>
      <trkpt lat="46.51675" lon="4.51443">
        <ele>279.59298706055</ele>
        <time>2018-08-22T10:24:05Z</time>
      </trkpt>
      <trkpt lat="46.51678" lon="4.51432">
        <ele>281.59298706055</ele>
        <time>2018-08-22T10:24:10Z</time>
      </trkpt>
      <trkpt lat="46.51679" lon="4.51421">
        <ele>282.59298706055</ele>
        <time>2018-08-22T10:24:15Z</time>
      </trkpt>
      <trkpt lat="46.51685" lon="4.51413">
        <ele>284.59298706055</ele>
        <time>2018-08-22T10:24:20Z</time>
      </trkpt>
      <trkpt lat="46.51685" lon="4.51391">
        <ele>284.59298706055</ele>
        <time>2018-08-22T10:24:29Z</time>
      </trkpt>
      <trkpt lat="46.51688" lon="4.51381">
        <ele>283.59298706055</ele>
        <time>2018-08-22T10:24:35Z</time>
      </trkpt>
      <trkpt lat="46.51691" lon="4.51369">
        <ele>283.59298706055</ele>
        <time>2018-08-22T10:24:41Z</time>
      </trkpt>
      <trkpt lat="46.51692" lon="4.51357">
        <ele>282.59298706055</ele>
        <time>2018-08-22T10:24:46Z</time>
      </trkpt>
      <trkpt lat="46.51696" lon="4.51347">
        <ele>285.59298706055</ele>
        <time>2018-08-22T10:24:50Z</time>
      </trkpt>
      <trkpt lat="46.51698" lon="4.51335">
        <ele>283.59298706055</ele>
        <time>2018-08-22T10:24:56Z</time>
      </trkpt>
      <trkpt lat="46.51696" lon="4.51324">
        <ele>276.59298706055</ele>
        <time>2018-08-22T10:25:04Z</time>
      </trkpt>
      <trkpt lat="46.51694" lon="4.51312">
        <ele>275.59298706055</ele>
        <time>2018-08-22T10:25:09Z</time>
      </trkpt>
      <trkpt lat="46.51692" lon="4.51301">
        <ele>278.59298706055</ele>
        <time>2018-08-22T10:25:15Z</time>
      </trkpt>
      <trkpt lat="46.51687" lon="4.51292">
        <ele>277.59298706055</ele>
        <time>2018-08-22T10:25:18Z</time>
      </trkpt>
      <trkpt lat="46.51675" lon="4.51277">
        <ele>273.59298706055</ele>
        <time>2018-08-22T10:25:26Z</time>
      </trkpt>
      <trkpt lat="46.51669" lon="4.51272">
        <ele>275.59298706055</ele>
        <time>2018-08-22T10:25:32Z</time>
      </trkpt>
      <trkpt lat="46.51662" lon="4.51268">
        <ele>277.59298706055</ele>
        <time>2018-08-22T10:25:39Z</time>
      </trkpt>
      <trkpt lat="46.51655" lon="4.51262">
        <ele>282.59298706055</ele>
        <time>2018-08-22T10:25:46Z</time>
      </trkpt>
      <trkpt lat="46.51647" lon="4.51258">
        <ele>281.59298706055</ele>
        <time>2018-08-22T10:25:52Z</time>
      </trkpt>
      <trkpt lat="46.51631" lon="4.51246">
        <ele>280.59298706055</ele>
        <time>2018-08-22T10:26:02Z</time>
      </trkpt>
      <trkpt lat="46.51624" lon="4.51239">
        <ele>283.59298706055</ele>
        <time>2018-08-22T10:26:13Z</time>
      </trkpt>
      <trkpt lat="46.51617" lon="4.51232">
        <ele>285.59298706055</ele>
        <time>2018-08-22T10:26:23Z</time>
      </trkpt>
      <trkpt lat="46.51604" lon="4.51215">
        <ele>286.59298706055</ele>
        <time>2018-08-22T10:26:34Z</time>
      </trkpt>
      <trkpt lat="46.51597" lon="4.51209">
        <ele>289.59298706055</ele>
        <time>2018-08-22T10:26:44Z</time>
      </trkpt>
      <trkpt lat="46.51584" lon="4.51198">
        <ele>287.59298706055</ele>
        <time>2018-08-22T10:26:53Z</time>
      </trkpt>
      <trkpt lat="46.51578" lon="4.5119">
        <ele>290.59298706055</ele>
        <time>2018-08-22T10:27:03Z</time>
      </trkpt>
      <trkpt lat="46.5157" lon="4.5118">
        <ele>287.59298706055</ele>
        <time>2018-08-22T10:27:06Z</time>
      </trkpt>
      <trkpt lat="46.51559" lon="4.51163">
        <ele>284.59298706055</ele>
        <time>2018-08-22T10:27:15Z</time>
      </trkpt>
      <trkpt lat="46.51553" lon="4.51156">
        <ele>286.59298706055</ele>
        <time>2018-08-22T10:27:22Z</time>
      </trkpt>
      <trkpt lat="46.51547" lon="4.5115">
        <ele>284.59298706055</ele>
        <time>2018-08-22T10:27:27Z</time>
      </trkpt>
      <trkpt lat="46.5154" lon="4.51141">
        <ele>285.59298706055</ele>
        <time>2018-08-22T10:27:33Z</time>
      </trkpt>
      <trkpt lat="46.51531" lon="4.51124">
        <ele>288.59298706055</ele>
        <time>2018-08-22T10:27:43Z</time>
      </trkpt>
      <trkpt lat="46.51524" lon="4.51113">
        <ele>288.59298706055</ele>
        <time>2018-08-22T10:27:50Z</time>
      </trkpt>
      <trkpt lat="46.51515" lon="4.51108">
        <ele>288.59201049805</ele>
        <time>2018-08-22T10:27:55Z</time>
      </trkpt>
      <trkpt lat="46.51506" lon="4.51106">
        <ele>289.59201049805</ele>
        <time>2018-08-22T10:28:01Z</time>
      </trkpt>
      <trkpt lat="46.51502" lon="4.51115">
        <ele>290.59201049805</ele>
        <time>2018-08-22T10:28:07Z</time>
      </trkpt>
      <trkpt lat="46.515" lon="4.51125">
        <ele>292.59201049805</ele>
        <time>2018-08-22T10:28:11Z</time>
      </trkpt>
      <trkpt lat="46.51497" lon="4.51135">
        <ele>291.59201049805</ele>
        <time>2018-08-22T10:28:18Z</time>
      </trkpt>
      <trkpt lat="46.51492" lon="4.51145">
        <ele>287.59201049805</ele>
        <time>2018-08-22T10:28:23Z</time>
      </trkpt>
      <trkpt lat="46.51485" lon="4.51152">
        <ele>287.59201049805</ele>
        <time>2018-08-22T10:28:29Z</time>
      </trkpt>
      <trkpt lat="46.51484" lon="4.51162">
        <ele>284.59201049805</ele>
        <time>2018-08-22T10:28:34Z</time>
      </trkpt>
      <trkpt lat="46.51474" lon="4.5118">
        <ele>289.59201049805</ele>
        <time>2018-08-22T10:28:43Z</time>
      </trkpt>
      <trkpt lat="46.51469" lon="4.5119">
        <ele>289.59201049805</ele>
        <time>2018-08-22T10:28:52Z</time>
      </trkpt>
      <trkpt lat="46.51467" lon="4.51201">
        <ele>289.59201049805</ele>
        <time>2018-08-22T10:28:57Z</time>
      </trkpt>
      <trkpt lat="46.51463" lon="4.5121">
        <ele>289.59201049805</ele>
        <time>2018-08-22T10:29:01Z</time>
      </trkpt>
      <trkpt lat="46.51456" lon="4.51217">
        <ele>290.59201049805</ele>
        <time>2018-08-22T10:29:06Z</time>
      </trkpt>
      <trkpt lat="46.51454" lon="4.51228">
        <ele>292.59201049805</ele>
        <time>2018-08-22T10:29:11Z</time>
      </trkpt>
      <trkpt lat="46.51449" lon="4.51236">
        <ele>292.59201049805</ele>
        <time>2018-08-22T10:29:15Z</time>
      </trkpt>
      <trkpt lat="46.51445" lon="4.51246">
        <ele>293.59201049805</ele>
        <time>2018-08-22T10:29:20Z</time>
      </trkpt>
      <trkpt lat="46.5144" lon="4.51255">
        <ele>293.59201049805</ele>
        <time>2018-08-22T10:29:26Z</time>
      </trkpt>
      <trkpt lat="46.51438" lon="4.51267">
        <ele>292.59201049805</ele>
        <time>2018-08-22T10:29:31Z</time>
      </trkpt>
      <trkpt lat="46.51432" lon="4.51275">
        <ele>294.59201049805</ele>
        <time>2018-08-22T10:29:39Z</time>
      </trkpt>
      <trkpt lat="46.51431" lon="4.51288">
        <ele>297.59201049805</ele>
        <time>2018-08-22T10:29:43Z</time>
      </trkpt>
      <trkpt lat="46.51427" lon="4.51297">
        <ele>300.59201049805</ele>
        <time>2018-08-22T10:29:49Z</time>
      </trkpt>
      <trkpt lat="46.51423" lon="4.51308">
        <ele>302.59201049805</ele>
        <time>2018-08-22T10:29:54Z</time>
      </trkpt>
      <trkpt lat="46.51421" lon="4.51319">
        <ele>304.59201049805</ele>
        <time>2018-08-22T10:29:59Z</time>
      </trkpt>
      <trkpt lat="46.51417" lon="4.51329">
        <ele>307.59201049805</ele>
        <time>2018-08-22T10:30:04Z</time>
      </trkpt>
      <trkpt lat="46.51411" lon="4.51336">
        <ele>309.59201049805</ele>
        <time>2018-08-22T10:30:20Z</time>
      </trkpt>
      <trkpt lat="46.51404" lon="4.51343">
        <ele>309.59201049805</ele>
        <time>2018-08-22T10:30:25Z</time>
      </trkpt>
      <trkpt lat="46.51397" lon="4.5135">
        <ele>309.59201049805</ele>
        <time>2018-08-22T10:30:34Z</time>
      </trkpt>
      <trkpt lat="46.51392" lon="4.51358">
        <ele>310.59201049805</ele>
        <time>2018-08-22T10:30:39Z</time>
      </trkpt>
      <trkpt lat="46.51386" lon="4.51366">
        <ele>308.59201049805</ele>
        <time>2018-08-22T10:30:45Z</time>
      </trkpt>
      <trkpt lat="46.51379" lon="4.51374">
        <ele>305.59201049805</ele>
        <time>2018-08-22T10:30:51Z</time>
      </trkpt>
      <trkpt lat="46.51371" lon="4.51377">
        <ele>306.59201049805</ele>
        <time>2018-08-22T10:30:59Z</time>
      </trkpt>
      <trkpt lat="46.51361" lon="4.5139">
        <ele>302.59201049805</ele>
        <time>2018-08-22T10:31:08Z</time>
      </trkpt>
      <trkpt lat="46.51357" lon="4.514">
        <ele>300.59201049805</ele>
        <time>2018-08-22T10:31:14Z</time>
      </trkpt>
      <trkpt lat="46.51351" lon="4.51408">
        <ele>299.59201049805</ele>
        <time>2018-08-22T10:31:20Z</time>
      </trkpt>
      <trkpt lat="46.51343" lon="4.51414">
        <ele>298.59201049805</ele>
        <time>2018-08-22T10:31:26Z</time>
      </trkpt>
      <trkpt lat="46.51336" lon="4.5142">
        <ele>303.59201049805</ele>
        <time>2018-08-22T10:31:32Z</time>
      </trkpt>
      <trkpt lat="46.51331" lon="4.5143">
        <ele>302.59201049805</ele>
        <time>2018-08-22T10:31:37Z</time>
      </trkpt>
      <trkpt lat="46.51324" lon="4.51439">
        <ele>302.59201049805</ele>
        <time>2018-08-22T10:31:42Z</time>
      </trkpt>
      <trkpt lat="46.51319" lon="4.51447">
        <ele>302.59201049805</ele>
        <time>2018-08-22T10:31:48Z</time>
      </trkpt>
      <trkpt lat="46.51313" lon="4.51453">
        <ele>300.59201049805</ele>
        <time>2018-08-22T10:31:56Z</time>
      </trkpt>
      <trkpt lat="46.5131" lon="4.51464">
        <ele>301.59201049805</ele>
        <time>2018-08-22T10:32:01Z</time>
      </trkpt>
      <trkpt lat="46.513" lon="4.5148">
        <ele>302.59201049805</ele>
        <time>2018-08-22T10:32:10Z</time>
      </trkpt>
      <trkpt lat="46.51288" lon="4.51498">
        <ele>307.59201049805</ele>
        <time>2018-08-22T10:32:19Z</time>
      </trkpt>
      <trkpt lat="46.51285" lon="4.51508">
        <ele>308.59201049805</ele>
        <time>2018-08-22T10:32:24Z</time>
      </trkpt>
      <trkpt lat="46.51282" lon="4.51531">
        <ele>313.59201049805</ele>
        <time>2018-08-22T10:32:33Z</time>
      </trkpt>
      <trkpt lat="46.51282" lon="4.51542">
        <ele>314.59201049805</ele>
        <time>2018-08-22T10:32:38Z</time>
      </trkpt>
      <trkpt lat="46.51281" lon="4.51554">
        <ele>315.59201049805</ele>
        <time>2018-08-22T10:32:43Z</time>
      </trkpt>
      <trkpt lat="46.51278" lon="4.51576">
        <ele>314.59201049805</ele>
        <time>2018-08-22T10:32:50Z</time>
      </trkpt>
      <trkpt lat="46.51277" lon="4.51586">
        <ele>311.59201049805</ele>
        <time>2018-08-22T10:32:55Z</time>
      </trkpt>
      <trkpt lat="46.51279" lon="4.51597">
        <ele>309.59201049805</ele>
        <time>2018-08-22T10:33:00Z</time>
      </trkpt>
      <trkpt lat="46.51279" lon="4.5161">
        <ele>314.59201049805</ele>
        <time>2018-08-22T10:33:08Z</time>
      </trkpt>
      <trkpt lat="46.51277" lon="4.51621">
        <ele>313.59201049805</ele>
        <time>2018-08-22T10:33:14Z</time>
      </trkpt>
      <trkpt lat="46.51284" lon="4.5164">
        <ele>308.59201049805</ele>
        <time>2018-08-22T10:33:23Z</time>
      </trkpt>
      <trkpt lat="46.51285" lon="4.51653">
        <ele>313.59201049805</ele>
        <time>2018-08-22T10:33:28Z</time>
      </trkpt>
      <trkpt lat="46.51287" lon="4.51665">
        <ele>310.59201049805</ele>
        <time>2018-08-22T10:33:34Z</time>
      </trkpt>
      <trkpt lat="46.51292" lon="4.51673">
        <ele>305.59201049805</ele>
        <time>2018-08-22T10:33:39Z</time>
      </trkpt>
      <trkpt lat="46.51296" lon="4.51684">
        <ele>308.59201049805</ele>
        <time>2018-08-22T10:33:45Z</time>
      </trkpt>
      <trkpt lat="46.51296" lon="4.51694">
        <ele>313.59201049805</ele>
        <time>2018-08-22T10:33:51Z</time>
      </trkpt>
      <trkpt lat="46.513" lon="4.51706">
        <ele>315.59201049805</ele>
        <time>2018-08-22T10:33:58Z</time>
      </trkpt>
      <trkpt lat="46.51303" lon="4.51717">
        <ele>317.59201049805</ele>
        <time>2018-08-22T10:34:05Z</time>
      </trkpt>
      <trkpt lat="46.51306" lon="4.51728">
        <ele>313.59201049805</ele>
        <time>2018-08-22T10:34:11Z</time>
      </trkpt>
      <trkpt lat="46.51309" lon="4.51741">
        <ele>308.59201049805</ele>
        <time>2018-08-22T10:34:17Z</time>
      </trkpt>
      <trkpt lat="46.51311" lon="4.51754">
        <ele>305.59201049805</ele>
        <time>2018-08-22T10:34:23Z</time>
      </trkpt>
      <trkpt lat="46.51314" lon="4.51776">
        <ele>308.59201049805</ele>
        <time>2018-08-22T10:34:33Z</time>
      </trkpt>
      <trkpt lat="46.51314" lon="4.51788">
        <ele>310.59201049805</ele>
        <time>2018-08-22T10:34:39Z</time>
      </trkpt>
      <trkpt lat="46.51314" lon="4.51799">
        <ele>312.59201049805</ele>
        <time>2018-08-22T10:34:43Z</time>
      </trkpt>
      <trkpt lat="46.51316" lon="4.51813">
        <ele>312.59201049805</ele>
        <time>2018-08-22T10:34:49Z</time>
      </trkpt>
      <trkpt lat="46.51316" lon="4.51825">
        <ele>313.59201049805</ele>
        <time>2018-08-22T10:34:54Z</time>
      </trkpt>
      <trkpt lat="46.51323" lon="4.51829">
        <ele>307.59298706055</ele>
        <time>2018-08-22T10:34:59Z</time>
      </trkpt>
      <trkpt lat="46.51329" lon="4.51837">
        <ele>309.59298706055</ele>
        <time>2018-08-22T10:35:05Z</time>
      </trkpt>
      <trkpt lat="46.51332" lon="4.51848">
        <ele>304.59298706055</ele>
        <time>2018-08-22T10:35:10Z</time>
      </trkpt>
      <trkpt lat="46.51338" lon="4.51857">
        <ele>304.59298706055</ele>
        <time>2018-08-22T10:35:15Z</time>
      </trkpt>
      <trkpt lat="46.51349" lon="4.51871">
        <ele>304.59298706055</ele>
        <time>2018-08-22T10:35:25Z</time>
      </trkpt>
      <trkpt lat="46.51353" lon="4.51882">
        <ele>299.59298706055</ele>
        <time>2018-08-22T10:35:31Z</time>
      </trkpt>
      <trkpt lat="46.5136" lon="4.51888">
        <ele>294.59298706055</ele>
        <time>2018-08-22T10:35:37Z</time>
      </trkpt>
      <trkpt lat="46.51367" lon="4.51894">
        <ele>294.59298706055</ele>
        <time>2018-08-22T10:35:43Z</time>
      </trkpt>
      <trkpt lat="46.51372" lon="4.51916">
        <ele>297.59298706055</ele>
        <time>2018-08-22T10:35:53Z</time>
      </trkpt>
      <trkpt lat="46.51375" lon="4.51927">
        <ele>296.59298706055</ele>
        <time>2018-08-22T10:35:58Z</time>
      </trkpt>
      <trkpt lat="46.51377" lon="4.51938">
        <ele>294.59298706055</ele>
        <time>2018-08-22T10:36:05Z</time>
      </trkpt>
      <trkpt lat="46.51381" lon="4.51947">
        <ele>293.59298706055</ele>
        <time>2018-08-22T10:36:10Z</time>
      </trkpt>
      <trkpt lat="46.51384" lon="4.51956">
        <ele>296.59298706055</ele>
        <time>2018-08-22T10:36:15Z</time>
      </trkpt>
      <trkpt lat="46.51386" lon="4.51967">
        <ele>298.59298706055</ele>
        <time>2018-08-22T10:36:21Z</time>
      </trkpt>
      <trkpt lat="46.5139" lon="4.51978">
        <ele>299.59298706055</ele>
        <time>2018-08-22T10:36:26Z</time>
      </trkpt>
      <trkpt lat="46.51392" lon="4.51989">
        <ele>301.59298706055</ele>
        <time>2018-08-22T10:36:32Z</time>
      </trkpt>
      <trkpt lat="46.51397" lon="4.51999">
        <ele>303.59298706055</ele>
        <time>2018-08-22T10:36:39Z</time>
      </trkpt>
      <trkpt lat="46.51398" lon="4.52012">
        <ele>298.59298706055</ele>
        <time>2018-08-22T10:36:46Z</time>
      </trkpt>
      <trkpt lat="46.51401" lon="4.52022">
        <ele>301.59298706055</ele>
        <time>2018-08-22T10:36:53Z</time>
      </trkpt>
      <trkpt lat="46.51401" lon="4.52034">
        <ele>302.59298706055</ele>
        <time>2018-08-22T10:36:58Z</time>
      </trkpt>
      <trkpt lat="46.514" lon="4.52045">
        <ele>299.59298706055</ele>
        <time>2018-08-22T10:37:04Z</time>
      </trkpt>
      <trkpt lat="46.51401" lon="4.52059">
        <ele>302.59298706055</ele>
        <time>2018-08-22T10:37:10Z</time>
      </trkpt>
      <trkpt lat="46.51402" lon="4.52071">
        <ele>304.59298706055</ele>
        <time>2018-08-22T10:37:15Z</time>
      </trkpt>
      <trkpt lat="46.51401" lon="4.52083">
        <ele>307.59298706055</ele>
        <time>2018-08-22T10:37:21Z</time>
      </trkpt>
      <trkpt lat="46.51398" lon="4.52095">
        <ele>308.59298706055</ele>
        <time>2018-08-22T10:37:26Z</time>
      </trkpt>
      <trkpt lat="46.51398" lon="4.52107">
        <ele>306.59298706055</ele>
        <time>2018-08-22T10:37:33Z</time>
      </trkpt>
      <trkpt lat="46.51396" lon="4.52133">
        <ele>305.59298706055</ele>
        <time>2018-08-22T10:37:43Z</time>
      </trkpt>
      <trkpt lat="46.51394" lon="4.52146">
        <ele>306.59298706055</ele>
        <time>2018-08-22T10:37:48Z</time>
      </trkpt>
      <trkpt lat="46.51393" lon="4.52158">
        <ele>306.59298706055</ele>
        <time>2018-08-22T10:37:56Z</time>
      </trkpt>
      <trkpt lat="46.51392" lon="4.52171">
        <ele>309.59298706055</ele>
        <time>2018-08-22T10:38:01Z</time>
      </trkpt>
      <trkpt lat="46.51389" lon="4.52181">
        <ele>313.59298706055</ele>
        <time>2018-08-22T10:38:09Z</time>
      </trkpt>
      <trkpt lat="46.5139" lon="4.52196">
        <ele>316.59298706055</ele>
        <time>2018-08-22T10:38:15Z</time>
      </trkpt>
      <trkpt lat="46.51391" lon="4.52209">
        <ele>309.59298706055</ele>
        <time>2018-08-22T10:38:20Z</time>
      </trkpt>
      <trkpt lat="46.51394" lon="4.52218">
        <ele>308.59298706055</ele>
        <time>2018-08-22T10:38:26Z</time>
      </trkpt>
      <trkpt lat="46.51393" lon="4.5223">
        <ele>311.59298706055</ele>
        <time>2018-08-22T10:38:31Z</time>
      </trkpt>
      <trkpt lat="46.51397" lon="4.5224">
        <ele>313.59298706055</ele>
        <time>2018-08-22T10:38:37Z</time>
      </trkpt>
      <trkpt lat="46.51399" lon="4.5225">
        <ele>314.59298706055</ele>
        <time>2018-08-22T10:38:44Z</time>
      </trkpt>
      <trkpt lat="46.51402" lon="4.52261">
        <ele>312.59298706055</ele>
        <time>2018-08-22T10:38:49Z</time>
      </trkpt>
      <trkpt lat="46.51403" lon="4.52273">
        <ele>308.59298706055</ele>
        <time>2018-08-22T10:38:54Z</time>
      </trkpt>
      <trkpt lat="46.51408" lon="4.52282">
        <ele>312.59298706055</ele>
        <time>2018-08-22T10:38:59Z</time>
      </trkpt>
      <trkpt lat="46.51409" lon="4.52294">
        <ele>311.59298706055</ele>
        <time>2018-08-22T10:39:05Z</time>
      </trkpt>
      <trkpt lat="46.51416" lon="4.52312">
        <ele>308.59298706055</ele>
        <time>2018-08-22T10:39:13Z</time>
      </trkpt>
      <trkpt lat="46.51417" lon="4.52322">
        <ele>310.59298706055</ele>
        <time>2018-08-22T10:39:17Z</time>
      </trkpt>
      <trkpt lat="46.51421" lon="4.52333">
        <ele>304.59298706055</ele>
        <time>2018-08-22T10:39:24Z</time>
      </trkpt>
      <trkpt lat="46.51425" lon="4.52345">
        <ele>305.59298706055</ele>
        <time>2018-08-22T10:39:29Z</time>
      </trkpt>
      <trkpt lat="46.51429" lon="4.52355">
        <ele>304.59298706055</ele>
        <time>2018-08-22T10:39:34Z</time>
      </trkpt>
      <trkpt lat="46.51436" lon="4.52361">
        <ele>297.59298706055</ele>
        <time>2018-08-22T10:39:40Z</time>
      </trkpt>
      <trkpt lat="46.5144" lon="4.52373">
        <ele>299.59298706055</ele>
        <time>2018-08-22T10:39:47Z</time>
      </trkpt>
      <trkpt lat="46.51446" lon="4.52379">
        <ele>304.59298706055</ele>
        <time>2018-08-22T10:39:52Z</time>
      </trkpt>
      <trkpt lat="46.51452" lon="4.52388">
        <ele>302.59298706055</ele>
        <time>2018-08-22T10:39:57Z</time>
      </trkpt>
      <trkpt lat="46.5146" lon="4.5239">
        <ele>303.59298706055</ele>
        <time>2018-08-22T10:40:02Z</time>
      </trkpt>
      <trkpt lat="46.51464" lon="4.52399">
        <ele>303.59298706055</ele>
        <time>2018-08-22T10:40:08Z</time>
      </trkpt>
      <trkpt lat="46.51471" lon="4.52405">
        <ele>305.59298706055</ele>
        <time>2018-08-22T10:40:13Z</time>
      </trkpt>
      <trkpt lat="46.51479" lon="4.5241">
        <ele>306.59298706055</ele>
        <time>2018-08-22T10:40:20Z</time>
      </trkpt>
      <trkpt lat="46.51485" lon="4.52416">
        <ele>306.59298706055</ele>
        <time>2018-08-22T10:40:26Z</time>
      </trkpt>
      <trkpt lat="46.51491" lon="4.52425">
        <ele>303.59298706055</ele>
        <time>2018-08-22T10:40:30Z</time>
      </trkpt>
      <trkpt lat="46.51496" lon="4.52433">
        <ele>302.59298706055</ele>
        <time>2018-08-22T10:40:35Z</time>
      </trkpt>
      <trkpt lat="46.51502" lon="4.5244">
        <ele>304.59298706055</ele>
        <time>2018-08-22T10:40:41Z</time>
      </trkpt>
      <trkpt lat="46.51506" lon="4.5245">
        <ele>306.59298706055</ele>
        <time>2018-08-22T10:40:46Z</time>
      </trkpt>
      <trkpt lat="46.51507" lon="4.52461">
        <ele>308.59298706055</ele>
        <time>2018-08-22T10:40:52Z</time>
      </trkpt>
      <trkpt lat="46.51505" lon="4.52472">
        <ele>309.59298706055</ele>
        <time>2018-08-22T10:40:57Z</time>
      </trkpt>
      <trkpt lat="46.51504" lon="4.52482">
        <ele>307.59298706055</ele>
        <time>2018-08-22T10:41:03Z</time>
      </trkpt>
      <trkpt lat="46.51506" lon="4.52495">
        <ele>307.59298706055</ele>
        <time>2018-08-22T10:41:08Z</time>
      </trkpt>
      <trkpt lat="46.51505" lon="4.52506">
        <ele>305.59399414062</ele>
        <time>2018-08-22T10:41:16Z</time>
      </trkpt>
      <trkpt lat="46.51504" lon="4.52518">
        <ele>303.59399414062</ele>
        <time>2018-08-22T10:41:21Z</time>
      </trkpt>
      <trkpt lat="46.51503" lon="4.5253">
        <ele>296.59399414062</ele>
        <time>2018-08-22T10:41:26Z</time>
      </trkpt>
      <trkpt lat="46.51501" lon="4.5254">
        <ele>300.59399414062</ele>
        <time>2018-08-22T10:41:40Z</time>
      </trkpt>
      <trkpt lat="46.51501" lon="4.52553">
        <ele>301.59399414062</ele>
        <time>2018-08-22T10:41:47Z</time>
      </trkpt>
      <trkpt lat="46.515" lon="4.52576">
        <ele>304.59399414062</ele>
        <time>2018-08-22T10:41:54Z</time>
      </trkpt>
      <trkpt lat="46.51502" lon="4.52588">
        <ele>305.59399414062</ele>
        <time>2018-08-22T10:42:00Z</time>
      </trkpt>
      <trkpt lat="46.51503" lon="4.52601">
        <ele>306.59399414062</ele>
        <time>2018-08-22T10:42:06Z</time>
      </trkpt>
      <trkpt lat="46.51504" lon="4.52627">
        <ele>309.59399414062</ele>
        <time>2018-08-22T10:42:14Z</time>
      </trkpt>
      <trkpt lat="46.51505" lon="4.52638">
        <ele>309.59399414062</ele>
        <time>2018-08-22T10:42:19Z</time>
      </trkpt>
      <trkpt lat="46.51505" lon="4.52648">
        <ele>312.59399414062</ele>
        <time>2018-08-22T10:42:23Z</time>
      </trkpt>
      <trkpt lat="46.51505" lon="4.5266">
        <ele>310.59399414062</ele>
        <time>2018-08-22T10:42:36Z</time>
      </trkpt>
      <trkpt lat="46.51507" lon="4.5267">
        <ele>306.59399414062</ele>
        <time>2018-08-22T10:42:41Z</time>
      </trkpt>
      <trkpt lat="46.51509" lon="4.52681">
        <ele>305.59399414062</ele>
        <time>2018-08-22T10:42:46Z</time>
      </trkpt>
      <trkpt lat="46.51513" lon="4.52694">
        <ele>301.59399414062</ele>
        <time>2018-08-22T10:42:51Z</time>
      </trkpt>
      <trkpt lat="46.51515" lon="4.52705">
        <ele>301.59399414062</ele>
        <time>2018-08-22T10:42:57Z</time>
      </trkpt>
      <trkpt lat="46.51516" lon="4.52717">
        <ele>299.59399414062</ele>
        <time>2018-08-22T10:43:03Z</time>
      </trkpt>
      <trkpt lat="46.51517" lon="4.52728">
        <ele>299.59399414062</ele>
        <time>2018-08-22T10:43:09Z</time>
      </trkpt>
      <trkpt lat="46.51519" lon="4.52739">
        <ele>297.59399414062</ele>
        <time>2018-08-22T10:43:14Z</time>
      </trkpt>
      <trkpt lat="46.51524" lon="4.52748">
        <ele>299.59399414062</ele>
        <time>2018-08-22T10:43:20Z</time>
      </trkpt>
      <trkpt lat="46.5153" lon="4.52754">
        <ele>293.59399414062</ele>
        <time>2018-08-22T10:43:26Z</time>
      </trkpt>
      <trkpt lat="46.51535" lon="4.52763">
        <ele>297.59399414062</ele>
        <time>2018-08-22T10:43:32Z</time>
      </trkpt>
      <trkpt lat="46.5154" lon="4.52773">
        <ele>295.59399414062</ele>
        <time>2018-08-22T10:43:38Z</time>
      </trkpt>
      <trkpt lat="46.51545" lon="4.52783">
        <ele>292.59399414062</ele>
        <time>2018-08-22T10:43:45Z</time>
      </trkpt>
      <trkpt lat="46.5155" lon="4.52791">
        <ele>290.59399414062</ele>
        <time>2018-08-22T10:43:50Z</time>
      </trkpt>
      <trkpt lat="46.51553" lon="4.52802">
        <ele>289.59399414062</ele>
        <time>2018-08-22T10:43:55Z</time>
      </trkpt>
      <trkpt lat="46.51556" lon="4.52812">
        <ele>292.59399414062</ele>
        <time>2018-08-22T10:44:02Z</time>
      </trkpt>
      <trkpt lat="46.51562" lon="4.5282">
        <ele>294.59399414062</ele>
        <time>2018-08-22T10:44:07Z</time>
      </trkpt>
      <trkpt lat="46.51566" lon="4.5283">
        <ele>298.59399414062</ele>
        <time>2018-08-22T10:44:12Z</time>
      </trkpt>
      <trkpt lat="46.51571" lon="4.52838">
        <ele>296.59399414062</ele>
        <time>2018-08-22T10:44:17Z</time>
      </trkpt>
      <trkpt lat="46.51577" lon="4.52846">
        <ele>295.59399414062</ele>
        <time>2018-08-22T10:44:24Z</time>
      </trkpt>
      <trkpt lat="46.51579" lon="4.52859">
        <ele>298.59399414062</ele>
        <time>2018-08-22T10:44:30Z</time>
      </trkpt>
      <trkpt lat="46.51582" lon="4.52869">
        <ele>296.59399414062</ele>
        <time>2018-08-22T10:44:35Z</time>
      </trkpt>
      <trkpt lat="46.51585" lon="4.5288">
        <ele>294.59399414062</ele>
        <time>2018-08-22T10:44:40Z</time>
      </trkpt>
      <trkpt lat="46.51593" lon="4.52885">
        <ele>292.59399414062</ele>
        <time>2018-08-22T10:44:46Z</time>
      </trkpt>
      <trkpt lat="46.516" lon="4.52894">
        <ele>293.59399414062</ele>
        <time>2018-08-22T10:44:53Z</time>
      </trkpt>
      <trkpt lat="46.51606" lon="4.52902">
        <ele>297.59399414062</ele>
        <time>2018-08-22T10:45:00Z</time>
      </trkpt>
      <trkpt lat="46.51613" lon="4.52908">
        <ele>299.59399414062</ele>
        <time>2018-08-22T10:45:05Z</time>
      </trkpt>
      <trkpt lat="46.5162" lon="4.5291">
        <ele>302.59399414062</ele>
        <time>2018-08-22T10:45:10Z</time>
      </trkpt>
      <trkpt lat="46.51628" lon="4.52911">
        <ele>299.59399414062</ele>
        <time>2018-08-22T10:45:16Z</time>
      </trkpt>
      <trkpt lat="46.51635" lon="4.52915">
        <ele>299.59399414062</ele>
        <time>2018-08-22T10:45:21Z</time>
      </trkpt>
      <trkpt lat="46.51643" lon="4.52914">
        <ele>301.59399414062</ele>
        <time>2018-08-22T10:45:27Z</time>
      </trkpt>
      <trkpt lat="46.51648" lon="4.52923">
        <ele>297.59399414062</ele>
        <time>2018-08-22T10:45:30Z</time>
      </trkpt>
      <trkpt lat="46.51656" lon="4.5293">
        <ele>298.59399414062</ele>
        <time>2018-08-22T10:45:35Z</time>
      </trkpt>
      <trkpt lat="46.51662" lon="4.5294">
        <ele>298.59399414062</ele>
        <time>2018-08-22T10:45:42Z</time>
      </trkpt>
      <trkpt lat="46.51668" lon="4.52947">
        <ele>297.59399414062</ele>
        <time>2018-08-22T10:45:48Z</time>
      </trkpt>
      <trkpt lat="46.51674" lon="4.52954">
        <ele>297.59399414062</ele>
        <time>2018-08-22T10:45:53Z</time>
      </trkpt>
      <trkpt lat="46.5168" lon="4.52961">
        <ele>296.59399414062</ele>
        <time>2018-08-22T10:45:58Z</time>
      </trkpt>
      <trkpt lat="46.51683" lon="4.52971">
        <ele>291.59399414062</ele>
        <time>2018-08-22T10:46:03Z</time>
      </trkpt>
      <trkpt lat="46.51688" lon="4.52978">
        <ele>289.59399414062</ele>
        <time>2018-08-22T10:46:10Z</time>
      </trkpt>
      <trkpt lat="46.51696" lon="4.52981">
        <ele>288.59399414062</ele>
        <time>2018-08-22T10:46:15Z</time>
      </trkpt>
      <trkpt lat="46.51703" lon="4.52987">
        <ele>291.59399414062</ele>
        <time>2018-08-22T10:46:23Z</time>
      </trkpt>
      <trkpt lat="46.51708" lon="4.52995">
        <ele>294.59399414062</ele>
        <time>2018-08-22T10:46:28Z</time>
      </trkpt>
      <trkpt lat="46.51715" lon="4.53">
        <ele>294.59399414062</ele>
        <time>2018-08-22T10:46:33Z</time>
      </trkpt>
      <trkpt lat="46.51729" lon="4.53008">
        <ele>289.59399414062</ele>
        <time>2018-08-22T10:46:42Z</time>
      </trkpt>
      <trkpt lat="46.51736" lon="4.53011">
        <ele>285.5950012207</ele>
        <time>2018-08-22T10:46:52Z</time>
      </trkpt>
      <trkpt lat="46.51742" lon="4.53017">
        <ele>284.5950012207</ele>
        <time>2018-08-22T10:46:57Z</time>
      </trkpt>
      <trkpt lat="46.51749" lon="4.5302">
        <ele>285.5950012207</ele>
        <time>2018-08-22T10:47:06Z</time>
      </trkpt>
      <trkpt lat="46.51757" lon="4.53019">
        <ele>282.5950012207</ele>
        <time>2018-08-22T10:47:13Z</time>
      </trkpt>
      <trkpt lat="46.51765" lon="4.53023">
        <ele>283.5950012207</ele>
        <time>2018-08-22T10:47:19Z</time>
      </trkpt>
      <trkpt lat="46.5178" lon="4.53031">
        <ele>280.5950012207</ele>
        <time>2018-08-22T10:47:28Z</time>
      </trkpt>
      <trkpt lat="46.51794" lon="4.5304">
        <ele>282.5950012207</ele>
        <time>2018-08-22T10:47:37Z</time>
      </trkpt>
      <trkpt lat="46.51801" lon="4.53045">
        <ele>279.5950012207</ele>
        <time>2018-08-22T10:47:44Z</time>
      </trkpt>
      <trkpt lat="46.51807" lon="4.53051">
        <ele>278.5950012207</ele>
        <time>2018-08-22T10:47:50Z</time>
      </trkpt>
      <trkpt lat="46.51814" lon="4.53055">
        <ele>278.5950012207</ele>
        <time>2018-08-22T10:47:56Z</time>
      </trkpt>
      <trkpt lat="46.5182" lon="4.53062">
        <ele>279.5950012207</ele>
        <time>2018-08-22T10:48:01Z</time>
      </trkpt>
      <trkpt lat="46.51828" lon="4.53065">
        <ele>279.5950012207</ele>
        <time>2018-08-22T10:48:07Z</time>
      </trkpt>
      <trkpt lat="46.51835" lon="4.53069">
        <ele>280.5950012207</ele>
        <time>2018-08-22T10:48:13Z</time>
      </trkpt>
      <trkpt lat="46.51842" lon="4.53074">
        <ele>279.5950012207</ele>
        <time>2018-08-22T10:48:18Z</time>
      </trkpt>
      <trkpt lat="46.51849" lon="4.5308">
        <ele>279.5950012207</ele>
        <time>2018-08-22T10:48:25Z</time>
      </trkpt>
      <trkpt lat="46.51855" lon="4.53086">
        <ele>281.5950012207</ele>
        <time>2018-08-22T10:48:29Z</time>
      </trkpt>
      <trkpt lat="46.51861" lon="4.53093">
        <ele>282.5950012207</ele>
        <time>2018-08-22T10:48:33Z</time>
      </trkpt>
      <trkpt lat="46.51868" lon="4.53113">
        <ele>285.5950012207</ele>
        <time>2018-08-22T10:48:43Z</time>
      </trkpt>
      <trkpt lat="46.51874" lon="4.53119">
        <ele>284.5950012207</ele>
        <time>2018-08-22T10:48:50Z</time>
      </trkpt>
      <trkpt lat="46.51882" lon="4.53127">
        <ele>285.5950012207</ele>
        <time>2018-08-22T10:48:56Z</time>
      </trkpt>
      <trkpt lat="46.51887" lon="4.53135">
        <ele>285.5950012207</ele>
        <time>2018-08-22T10:49:02Z</time>
      </trkpt>
      <trkpt lat="46.51894" lon="4.5314">
        <ele>285.5950012207</ele>
        <time>2018-08-22T10:49:08Z</time>
      </trkpt>
      <trkpt lat="46.519" lon="4.53148">
        <ele>283.5950012207</ele>
        <time>2018-08-22T10:49:14Z</time>
      </trkpt>
      <trkpt lat="46.51907" lon="4.53155">
        <ele>280.5950012207</ele>
        <time>2018-08-22T10:49:19Z</time>
      </trkpt>
      <trkpt lat="46.51914" lon="4.53166">
        <ele>278.5950012207</ele>
        <time>2018-08-22T10:49:27Z</time>
      </trkpt>
      <trkpt lat="46.5192" lon="4.53173">
        <ele>280.5950012207</ele>
        <time>2018-08-22T10:49:31Z</time>
      </trkpt>
      <trkpt lat="46.51927" lon="4.53178">
        <ele>274.5950012207</ele>
        <time>2018-08-22T10:49:38Z</time>
      </trkpt>
      <trkpt lat="46.51934" lon="4.53184">
        <ele>276.5950012207</ele>
        <time>2018-08-22T10:49:44Z</time>
      </trkpt>
      <trkpt lat="46.5194" lon="4.53192">
        <ele>281.5950012207</ele>
        <time>2018-08-22T10:49:50Z</time>
      </trkpt>
      <trkpt lat="46.51948" lon="4.53198">
        <ele>284.5950012207</ele>
        <time>2018-08-22T10:49:57Z</time>
      </trkpt>
      <trkpt lat="46.51954" lon="4.53202">
        <ele>286.5950012207</ele>
        <time>2018-08-22T10:50:03Z</time>
      </trkpt>
      <trkpt lat="46.5197" lon="4.53204">
        <ele>282.5950012207</ele>
        <time>2018-08-22T10:50:12Z</time>
      </trkpt>
      <trkpt lat="46.51976" lon="4.53209">
        <ele>284.5950012207</ele>
        <time>2018-08-22T10:50:17Z</time>
      </trkpt>
      <trkpt lat="46.51984" lon="4.5321">
        <ele>286.5950012207</ele>
        <time>2018-08-22T10:50:25Z</time>
      </trkpt>
      <trkpt lat="46.51992" lon="4.53213">
        <ele>283.5950012207</ele>
        <time>2018-08-22T10:50:30Z</time>
      </trkpt>
      <trkpt lat="46.52005" lon="4.53225">
        <ele>282.5950012207</ele>
        <time>2018-08-22T10:50:40Z</time>
      </trkpt>
      <trkpt lat="46.5201" lon="4.53234">
        <ele>280.5950012207</ele>
        <time>2018-08-22T10:50:52Z</time>
      </trkpt>
      <trkpt lat="46.52012" lon="4.53244">
        <ele>275.5950012207</ele>
        <time>2018-08-22T10:51:13Z</time>
      </trkpt>
      <trkpt lat="46.52015" lon="4.53255">
        <ele>268.5950012207</ele>
        <time>2018-08-22T10:51:22Z</time>
      </trkpt>
      <trkpt lat="46.52016" lon="4.53267">
        <ele>271.5950012207</ele>
        <time>2018-08-22T10:51:28Z</time>
      </trkpt>
      <trkpt lat="46.52014" lon="4.53277">
        <ele>278.5950012207</ele>
        <time>2018-08-22T10:51:34Z</time>
      </trkpt>
      <trkpt lat="46.52013" lon="4.53289">
        <ele>271.5950012207</ele>
        <time>2018-08-22T10:51:40Z</time>
      </trkpt>
      <trkpt lat="46.52013" lon="4.53301">
        <ele>272.5950012207</ele>
        <time>2018-08-22T10:51:47Z</time>
      </trkpt>
      <trkpt lat="46.52015" lon="4.53312">
        <ele>271.5950012207</ele>
        <time>2018-08-22T10:51:54Z</time>
      </trkpt>
      <trkpt lat="46.52016" lon="4.53324">
        <ele>271.59600830078</ele>
        <time>2018-08-22T10:52:06Z</time>
      </trkpt>
      <trkpt lat="46.52021" lon="4.53343">
        <ele>272.59600830078</ele>
        <time>2018-08-22T10:52:15Z</time>
      </trkpt>
      <trkpt lat="46.5202" lon="4.53364">
        <ele>270.59600830078</ele>
        <time>2018-08-22T10:52:25Z</time>
      </trkpt>
      <trkpt lat="46.52018" lon="4.53377">
        <ele>268.59600830078</ele>
        <time>2018-08-22T10:52:31Z</time>
      </trkpt>
      <trkpt lat="46.52016" lon="4.53388">
        <ele>270.59600830078</ele>
        <time>2018-08-22T10:52:37Z</time>
      </trkpt>
      <trkpt lat="46.52018" lon="4.53399">
        <ele>265.59600830078</ele>
        <time>2018-08-22T10:52:43Z</time>
      </trkpt>
      <trkpt lat="46.52019" lon="4.53411">
        <ele>269.59600830078</ele>
        <time>2018-08-22T10:52:49Z</time>
      </trkpt>
      <trkpt lat="46.52023" lon="4.53419">
        <ele>271.59600830078</ele>
        <time>2018-08-22T10:53:12Z</time>
      </trkpt>
      <trkpt lat="46.52031" lon="4.53424">
        <ele>273.59600830078</ele>
        <time>2018-08-22T10:53:19Z</time>
      </trkpt>
      <trkpt lat="46.52039" lon="4.53425">
        <ele>274.59600830078</ele>
        <time>2018-08-22T10:53:27Z</time>
      </trkpt>
      <trkpt lat="46.52047" lon="4.53422">
        <ele>277.59600830078</ele>
        <time>2018-08-22T10:53:34Z</time>
      </trkpt>
      <trkpt lat="46.52054" lon="4.5342">
        <ele>279.59600830078</ele>
        <time>2018-08-22T10:53:40Z</time>
      </trkpt>
      <trkpt lat="46.52062" lon="4.5342">
        <ele>281.59600830078</ele>
        <time>2018-08-22T10:53:45Z</time>
      </trkpt>
      <trkpt lat="46.52068" lon="4.53415">
        <ele>281.59600830078</ele>
        <time>2018-08-22T10:53:52Z</time>
      </trkpt>
      <trkpt lat="46.52076" lon="4.53416">
        <ele>285.59600830078</ele>
        <time>2018-08-22T10:53:57Z</time>
      </trkpt>
      <trkpt lat="46.52084" lon="4.53414">
        <ele>284.59600830078</ele>
        <time>2018-08-22T10:54:03Z</time>
      </trkpt>
      <trkpt lat="46.52098" lon="4.53409">
        <ele>283.59600830078</ele>
        <time>2018-08-22T10:54:11Z</time>
      </trkpt>
      <trkpt lat="46.52105" lon="4.53411">
        <ele>284.59600830078</ele>
        <time>2018-08-22T10:54:17Z</time>
      </trkpt>
      <trkpt lat="46.52113" lon="4.5341">
        <ele>287.59600830078</ele>
        <time>2018-08-22T10:54:23Z</time>
      </trkpt>
      <trkpt lat="46.52121" lon="4.53413">
        <ele>284.59600830078</ele>
        <time>2018-08-22T10:54:29Z</time>
      </trkpt>
      <trkpt lat="46.52128" lon="4.53415">
        <ele>281.59600830078</ele>
        <time>2018-08-22T10:54:35Z</time>
      </trkpt>
      <trkpt lat="46.52135" lon="4.53416">
        <ele>281.59600830078</ele>
        <time>2018-08-22T10:54:40Z</time>
      </trkpt>
      <trkpt lat="46.52144" lon="4.53415">
        <ele>279.59600830078</ele>
        <time>2018-08-22T10:54:46Z</time>
      </trkpt>
      <trkpt lat="46.52151" lon="4.53415">
        <ele>279.59600830078</ele>
        <time>2018-08-22T10:54:51Z</time>
      </trkpt>
      <trkpt lat="46.52161" lon="4.53413">
        <ele>283.59600830078</ele>
        <time>2018-08-22T10:54:59Z</time>
      </trkpt>
      <trkpt lat="46.5217" lon="4.53412">
        <ele>284.59600830078</ele>
        <time>2018-08-22T10:55:05Z</time>
      </trkpt>
      <trkpt lat="46.52179" lon="4.53411">
        <ele>278.59600830078</ele>
        <time>2018-08-22T10:55:12Z</time>
      </trkpt>
      <trkpt lat="46.52186" lon="4.5341">
        <ele>277.59600830078</ele>
        <time>2018-08-22T10:55:18Z</time>
      </trkpt>
      <trkpt lat="46.52194" lon="4.53408">
        <ele>274.59600830078</ele>
        <time>2018-08-22T10:55:24Z</time>
      </trkpt>
      <trkpt lat="46.52201" lon="4.53411">
        <ele>273.59600830078</ele>
        <time>2018-08-22T10:55:29Z</time>
      </trkpt>
      <trkpt lat="46.52209" lon="4.5341">
        <ele>270.59600830078</ele>
        <time>2018-08-22T10:55:36Z</time>
      </trkpt>
      <trkpt lat="46.52217" lon="4.53409">
        <ele>271.59600830078</ele>
        <time>2018-08-22T10:55:42Z</time>
      </trkpt>
      <trkpt lat="46.52224" lon="4.5341">
        <ele>273.59600830078</ele>
        <time>2018-08-22T10:55:47Z</time>
      </trkpt>
      <trkpt lat="46.52231" lon="4.53406">
        <ele>272.59600830078</ele>
        <time>2018-08-22T10:55:51Z</time>
      </trkpt>
      <trkpt lat="46.52238" lon="4.53405">
        <ele>267.59600830078</ele>
        <time>2018-08-22T10:55:56Z</time>
      </trkpt>
      <trkpt lat="46.52247" lon="4.53403">
        <ele>268.59600830078</ele>
        <time>2018-08-22T10:56:03Z</time>
      </trkpt>
      <trkpt lat="46.52255" lon="4.53404">
        <ele>270.59600830078</ele>
        <time>2018-08-22T10:56:09Z</time>
      </trkpt>
      <trkpt lat="46.52262" lon="4.53404">
        <ele>271.59600830078</ele>
        <time>2018-08-22T10:56:14Z</time>
      </trkpt>
      <trkpt lat="46.5227" lon="4.53406">
        <ele>271.59600830078</ele>
        <time>2018-08-22T10:56:19Z</time>
      </trkpt>
      <trkpt lat="46.52277" lon="4.53404">
        <ele>270.59600830078</ele>
        <time>2018-08-22T10:56:25Z</time>
      </trkpt>
      <trkpt lat="46.52284" lon="4.53406">
        <ele>273.59600830078</ele>
        <time>2018-08-22T10:56:30Z</time>
      </trkpt>
      <trkpt lat="46.52293" lon="4.53409">
        <ele>272.59600830078</ele>
        <time>2018-08-22T10:56:36Z</time>
      </trkpt>
      <trkpt lat="46.52301" lon="4.53408">
        <ele>267.59600830078</ele>
        <time>2018-08-22T10:56:41Z</time>
      </trkpt>
      <trkpt lat="46.52308" lon="4.53415">
        <ele>267.59600830078</ele>
        <time>2018-08-22T10:56:48Z</time>
      </trkpt>
      <trkpt lat="46.52318" lon="4.53416">
        <ele>267.59600830078</ele>
        <time>2018-08-22T10:56:53Z</time>
      </trkpt>
      <trkpt lat="46.52334" lon="4.53421">
        <ele>269.59600830078</ele>
        <time>2018-08-22T10:57:02Z</time>
      </trkpt>
      <trkpt lat="46.52341" lon="4.53424">
        <ele>267.59600830078</ele>
        <time>2018-08-22T10:57:09Z</time>
      </trkpt>
      <trkpt lat="46.52349" lon="4.53425">
        <ele>267.59600830078</ele>
        <time>2018-08-22T10:57:17Z</time>
      </trkpt>
      <trkpt lat="46.52357" lon="4.53428">
        <ele>267.59698486328</ele>
        <time>2018-08-22T10:57:22Z</time>
      </trkpt>
      <trkpt lat="46.52366" lon="4.53428">
        <ele>268.59698486328</ele>
        <time>2018-08-22T10:57:27Z</time>
      </trkpt>
      <trkpt lat="46.52381" lon="4.53424">
        <ele>271.59698486328</ele>
        <time>2018-08-22T10:57:38Z</time>
      </trkpt>
      <trkpt lat="46.52388" lon="4.53425">
        <ele>271.59698486328</ele>
        <time>2018-08-22T10:57:44Z</time>
      </trkpt>
      <trkpt lat="46.52396" lon="4.53426">
        <ele>266.59698486328</ele>
        <time>2018-08-22T10:57:53Z</time>
      </trkpt>
      <trkpt lat="46.52405" lon="4.53429">
        <ele>264.59698486328</ele>
        <time>2018-08-22T10:58:02Z</time>
      </trkpt>
      <trkpt lat="46.52413" lon="4.53434">
        <ele>263.59698486328</ele>
        <time>2018-08-22T10:58:10Z</time>
      </trkpt>
      <trkpt lat="46.52421" lon="4.53436">
        <ele>264.59698486328</ele>
        <time>2018-08-22T10:58:15Z</time>
      </trkpt>
      <trkpt lat="46.52427" lon="4.53442">
        <ele>266.59698486328</ele>
        <time>2018-08-22T10:58:20Z</time>
      </trkpt>
      <trkpt lat="46.52435" lon="4.53442">
        <ele>265.59698486328</ele>
        <time>2018-08-22T10:58:27Z</time>
      </trkpt>
      <trkpt lat="46.52443" lon="4.53447">
        <ele>265.59698486328</ele>
        <time>2018-08-22T10:58:33Z</time>
      </trkpt>
      <trkpt lat="46.52456" lon="4.53458">
        <ele>264.59698486328</ele>
        <time>2018-08-22T10:58:42Z</time>
      </trkpt>
      <trkpt lat="46.52461" lon="4.53466">
        <ele>265.59698486328</ele>
        <time>2018-08-22T10:58:47Z</time>
      </trkpt>
      <trkpt lat="46.52467" lon="4.53474">
        <ele>264.59698486328</ele>
        <time>2018-08-22T10:58:53Z</time>
      </trkpt>
      <trkpt lat="46.52472" lon="4.53482">
        <ele>265.59698486328</ele>
        <time>2018-08-22T10:59:00Z</time>
      </trkpt>
      <trkpt lat="46.5248" lon="4.53484">
        <ele>264.59698486328</ele>
        <time>2018-08-22T10:59:06Z</time>
      </trkpt>
      <trkpt lat="46.52487" lon="4.53489">
        <ele>265.59698486328</ele>
        <time>2018-08-22T10:59:12Z</time>
      </trkpt>
      <trkpt lat="46.52496" lon="4.53488">
        <ele>269.59698486328</ele>
        <time>2018-08-22T10:59:18Z</time>
      </trkpt>
      <trkpt lat="46.52505" lon="4.53485">
        <ele>272.59698486328</ele>
        <time>2018-08-22T10:59:26Z</time>
      </trkpt>
      <trkpt lat="46.52512" lon="4.53482">
        <ele>265.59698486328</ele>
        <time>2018-08-22T10:59:32Z</time>
      </trkpt>
      <trkpt lat="46.5252" lon="4.5348">
        <ele>264.59698486328</ele>
        <time>2018-08-22T10:59:37Z</time>
      </trkpt>
      <trkpt lat="46.52528" lon="4.53482">
        <ele>265.59698486328</ele>
        <time>2018-08-22T10:59:49Z</time>
      </trkpt>
      <trkpt lat="46.52543" lon="4.53481">
        <ele>265.59698486328</ele>
        <time>2018-08-22T10:59:59Z</time>
      </trkpt>
      <trkpt lat="46.52552" lon="4.53482">
        <ele>265.59698486328</ele>
        <time>2018-08-22T11:00:05Z</time>
      </trkpt>
      <trkpt lat="46.5256" lon="4.53483">
        <ele>260.59698486328</ele>
        <time>2018-08-22T11:00:10Z</time>
      </trkpt>
      <trkpt lat="46.52567" lon="4.53482">
        <ele>260.59698486328</ele>
        <time>2018-08-22T11:00:15Z</time>
      </trkpt>
      <trkpt lat="46.52575" lon="4.5348">
        <ele>261.59698486328</ele>
        <time>2018-08-22T11:00:20Z</time>
      </trkpt>
      <trkpt lat="46.52592" lon="4.53479">
        <ele>265.59698486328</ele>
        <time>2018-08-22T11:00:28Z</time>
      </trkpt>
      <trkpt lat="46.52599" lon="4.53478">
        <ele>266.59698486328</ele>
        <time>2018-08-22T11:00:33Z</time>
      </trkpt>
      <trkpt lat="46.52606" lon="4.53474">
        <ele>264.59698486328</ele>
        <time>2018-08-22T11:00:41Z</time>
      </trkpt>
      <trkpt lat="46.52614" lon="4.53474">
        <ele>264.59698486328</ele>
        <time>2018-08-22T11:00:47Z</time>
      </trkpt>
      <trkpt lat="46.52622" lon="4.53474">
        <ele>264.59698486328</ele>
        <time>2018-08-22T11:00:55Z</time>
      </trkpt>
      <trkpt lat="46.5263" lon="4.53473">
        <ele>259.59698486328</ele>
        <time>2018-08-22T11:01:00Z</time>
      </trkpt>
      <trkpt lat="46.52637" lon="4.53477">
        <ele>263.59698486328</ele>
        <time>2018-08-22T11:01:10Z</time>
      </trkpt>
      <trkpt lat="46.52654" lon="4.53479">
        <ele>260.59698486328</ele>
        <time>2018-08-22T11:01:18Z</time>
      </trkpt>
      <trkpt lat="46.52662" lon="4.5348">
        <ele>265.59698486328</ele>
        <time>2018-08-22T11:01:23Z</time>
      </trkpt>
      <trkpt lat="46.52671" lon="4.53479">
        <ele>265.59698486328</ele>
        <time>2018-08-22T11:01:28Z</time>
      </trkpt>
      <trkpt lat="46.52686" lon="4.53481">
        <ele>270.59698486328</ele>
        <time>2018-08-22T11:01:39Z</time>
      </trkpt>
      <trkpt lat="46.52694" lon="4.53478">
        <ele>265.59698486328</ele>
        <time>2018-08-22T11:01:44Z</time>
      </trkpt>
      <trkpt lat="46.52701" lon="4.53476">
        <ele>264.59698486328</ele>
        <time>2018-08-22T11:01:49Z</time>
      </trkpt>
      <trkpt lat="46.52709" lon="4.53481">
        <ele>263.59799194336</ele>
        <time>2018-08-22T11:01:55Z</time>
      </trkpt>
      <trkpt lat="46.52719" lon="4.5348">
        <ele>264.59799194336</ele>
        <time>2018-08-22T11:02:00Z</time>
      </trkpt>
      <trkpt lat="46.52728" lon="4.53479">
        <ele>260.59799194336</ele>
        <time>2018-08-22T11:02:05Z</time>
      </trkpt>
      <trkpt lat="46.52735" lon="4.53485">
        <ele>260.59799194336</ele>
        <time>2018-08-22T11:02:12Z</time>
      </trkpt>
      <trkpt lat="46.52742" lon="4.53488">
        <ele>259.59799194336</ele>
        <time>2018-08-22T11:02:17Z</time>
      </trkpt>
      <trkpt lat="46.5275" lon="4.53487">
        <ele>254.59800720215</ele>
        <time>2018-08-22T11:02:24Z</time>
      </trkpt>
      <trkpt lat="46.52758" lon="4.53486">
        <ele>249.59800720215</ele>
        <time>2018-08-22T11:02:30Z</time>
      </trkpt>
      <trkpt lat="46.52774" lon="4.53486">
        <ele>246.59800720215</ele>
        <time>2018-08-22T11:02:41Z</time>
      </trkpt>
      <trkpt lat="46.52783" lon="4.53487">
        <ele>248.59800720215</ele>
        <time>2018-08-22T11:02:46Z</time>
      </trkpt>
      <trkpt lat="46.52791" lon="4.53486">
        <ele>246.59800720215</ele>
        <time>2018-08-22T11:02:54Z</time>
      </trkpt>
      <trkpt lat="46.52799" lon="4.53488">
        <ele>248.59800720215</ele>
        <time>2018-08-22T11:02:59Z</time>
      </trkpt>
      <trkpt lat="46.52805" lon="4.53494">
        <ele>249.59800720215</ele>
        <time>2018-08-22T11:03:05Z</time>
      </trkpt>
      <trkpt lat="46.52812" lon="4.53498">
        <ele>251.59800720215</ele>
        <time>2018-08-22T11:03:10Z</time>
      </trkpt>
      <trkpt lat="46.52828" lon="4.53503">
        <ele>254.59800720215</ele>
        <time>2018-08-22T11:03:20Z</time>
      </trkpt>
      <trkpt lat="46.52836" lon="4.53506">
        <ele>255.59800720215</ele>
        <time>2018-08-22T11:03:26Z</time>
      </trkpt>
      <trkpt lat="46.52843" lon="4.53512">
        <ele>252.59800720215</ele>
        <time>2018-08-22T11:03:34Z</time>
      </trkpt>
      <trkpt lat="46.5285" lon="4.53517">
        <ele>252.59800720215</ele>
        <time>2018-08-22T11:03:39Z</time>
      </trkpt>
      <trkpt lat="46.52857" lon="4.53522">
        <ele>256.59799194336</ele>
        <time>2018-08-22T11:03:42Z</time>
      </trkpt>
      <trkpt lat="46.52865" lon="4.53529">
        <ele>259.59799194336</ele>
        <time>2018-08-22T11:03:48Z</time>
      </trkpt>
      <trkpt lat="46.52872" lon="4.53534">
        <ele>259.59799194336</ele>
        <time>2018-08-22T11:03:54Z</time>
      </trkpt>
      <trkpt lat="46.5288" lon="4.53538">
        <ele>257.59799194336</ele>
        <time>2018-08-22T11:04:00Z</time>
      </trkpt>
      <trkpt lat="46.52888" lon="4.53541">
        <ele>256.59799194336</ele>
        <time>2018-08-22T11:04:09Z</time>
      </trkpt>
      <trkpt lat="46.52896" lon="4.53542">
        <ele>255.59800720215</ele>
        <time>2018-08-22T11:04:14Z</time>
      </trkpt>
      <trkpt lat="46.52903" lon="4.53546">
        <ele>257.59799194336</ele>
        <time>2018-08-22T11:04:22Z</time>
      </trkpt>
      <trkpt lat="46.5291" lon="4.5355">
        <ele>258.59799194336</ele>
        <time>2018-08-22T11:04:32Z</time>
      </trkpt>
      <trkpt lat="46.52928" lon="4.53561">
        <ele>256.59799194336</ele>
        <time>2018-08-22T11:04:40Z</time>
      </trkpt>
      <trkpt lat="46.52936" lon="4.5356">
        <ele>253.59800720215</ele>
        <time>2018-08-22T11:04:49Z</time>
      </trkpt>
      <trkpt lat="46.52945" lon="4.53557">
        <ele>252.59800720215</ele>
        <time>2018-08-22T11:04:56Z</time>
      </trkpt>
      <trkpt lat="46.52951" lon="4.53553">
        <ele>253.59800720215</ele>
        <time>2018-08-22T11:05:04Z</time>
      </trkpt>
      <trkpt lat="46.52959" lon="4.53555">
        <ele>253.59800720215</ele>
        <time>2018-08-22T11:05:11Z</time>
      </trkpt>
      <trkpt lat="46.52967" lon="4.53554">
        <ele>250.59800720215</ele>
        <time>2018-08-22T11:05:16Z</time>
      </trkpt>
      <trkpt lat="46.52983" lon="4.53546">
        <ele>251.59800720215</ele>
        <time>2018-08-22T11:05:28Z</time>
      </trkpt>
      <trkpt lat="46.5299" lon="4.53541">
        <ele>251.59800720215</ele>
        <time>2018-08-22T11:05:33Z</time>
      </trkpt>
      <trkpt lat="46.53004" lon="4.53531">
        <ele>245.59800720215</ele>
        <time>2018-08-22T11:05:45Z</time>
      </trkpt>
      <trkpt lat="46.53011" lon="4.53526">
        <ele>246.59800720215</ele>
        <time>2018-08-22T11:05:50Z</time>
      </trkpt>
      <trkpt lat="46.53017" lon="4.53519">
        <ele>247.59800720215</ele>
        <time>2018-08-22T11:05:58Z</time>
      </trkpt>
      <trkpt lat="46.53025" lon="4.53518">
        <ele>248.59800720215</ele>
        <time>2018-08-22T11:06:04Z</time>
      </trkpt>
      <trkpt lat="46.53033" lon="4.5352">
        <ele>252.59800720215</ele>
        <time>2018-08-22T11:06:09Z</time>
      </trkpt>
      <trkpt lat="46.5304" lon="4.53523">
        <ele>256.59799194336</ele>
        <time>2018-08-22T11:06:17Z</time>
      </trkpt>
      <trkpt lat="46.53047" lon="4.53528">
        <ele>258.59799194336</ele>
        <time>2018-08-22T11:06:23Z</time>
      </trkpt>
      <trkpt lat="46.53054" lon="4.53533">
        <ele>251.59800720215</ele>
        <time>2018-08-22T11:06:32Z</time>
      </trkpt>
      <trkpt lat="46.53061" lon="4.53537">
        <ele>251.59899902344</ele>
        <time>2018-08-22T11:06:37Z</time>
      </trkpt>
      <trkpt lat="46.53069" lon="4.5354">
        <ele>253.59899902344</ele>
        <time>2018-08-22T11:06:44Z</time>
      </trkpt>
      <trkpt lat="46.53077" lon="4.5354">
        <ele>257.59899902344</ele>
        <time>2018-08-22T11:06:50Z</time>
      </trkpt>
      <trkpt lat="46.53085" lon="4.53541">
        <ele>255.59899902344</ele>
        <time>2018-08-22T11:06:57Z</time>
      </trkpt>
      <trkpt lat="46.53093" lon="4.53544">
        <ele>256.59899902344</ele>
        <time>2018-08-22T11:07:02Z</time>
      </trkpt>
      <trkpt lat="46.53101" lon="4.53544">
        <ele>259.59899902344</ele>
        <time>2018-08-22T11:07:09Z</time>
      </trkpt>
      <trkpt lat="46.53116" lon="4.53545">
        <ele>260.59899902344</ele>
        <time>2018-08-22T11:07:19Z</time>
      </trkpt>
      <trkpt lat="46.53125" lon="4.53547">
        <ele>261.59899902344</ele>
        <time>2018-08-22T11:07:25Z</time>
      </trkpt>
      <trkpt lat="46.53132" lon="4.53552">
        <ele>263.59899902344</ele>
        <time>2018-08-22T11:07:31Z</time>
      </trkpt>
      <trkpt lat="46.5314" lon="4.53556">
        <ele>260.59899902344</ele>
        <time>2018-08-22T11:07:37Z</time>
      </trkpt>
      <trkpt lat="46.53147" lon="4.5356">
        <ele>260.59899902344</ele>
        <time>2018-08-22T11:07:43Z</time>
      </trkpt>
      <trkpt lat="46.53155" lon="4.53561">
        <ele>258.59899902344</ele>
        <time>2018-08-22T11:07:50Z</time>
      </trkpt>
      <trkpt lat="46.53163" lon="4.53563">
        <ele>258.59899902344</ele>
        <time>2018-08-22T11:07:58Z</time>
      </trkpt>
      <trkpt lat="46.5317" lon="4.53568">
        <ele>259.59899902344</ele>
        <time>2018-08-22T11:08:03Z</time>
      </trkpt>
      <trkpt lat="46.53179" lon="4.53573">
        <ele>258.59899902344</ele>
        <time>2018-08-22T11:08:09Z</time>
      </trkpt>
      <trkpt lat="46.53185" lon="4.53578">
        <ele>256.59899902344</ele>
        <time>2018-08-22T11:08:16Z</time>
      </trkpt>
      <trkpt lat="46.53194" lon="4.5358">
        <ele>255.59899902344</ele>
        <time>2018-08-22T11:08:23Z</time>
      </trkpt>
      <trkpt lat="46.53203" lon="4.53583">
        <ele>252.59899902344</ele>
        <time>2018-08-22T11:08:29Z</time>
      </trkpt>
      <trkpt lat="46.53212" lon="4.53584">
        <ele>252.59899902344</ele>
        <time>2018-08-22T11:08:35Z</time>
      </trkpt>
      <trkpt lat="46.5322" lon="4.53585">
        <ele>254.59899902344</ele>
        <time>2018-08-22T11:08:43Z</time>
      </trkpt>
      <trkpt lat="46.53228" lon="4.53581">
        <ele>256.59899902344</ele>
        <time>2018-08-22T11:08:49Z</time>
      </trkpt>
      <trkpt lat="46.53242" lon="4.53577">
        <ele>257.59899902344</ele>
        <time>2018-08-22T11:08:58Z</time>
      </trkpt>
      <trkpt lat="46.5325" lon="4.53573">
        <ele>257.59899902344</ele>
        <time>2018-08-22T11:09:07Z</time>
      </trkpt>
      <trkpt lat="46.53258" lon="4.53568">
        <ele>257.59899902344</ele>
        <time>2018-08-22T11:09:20Z</time>
      </trkpt>
      <trkpt lat="46.53266" lon="4.53561">
        <ele>257.59899902344</ele>
        <time>2018-08-22T11:09:26Z</time>
      </trkpt>
      <trkpt lat="46.53273" lon="4.53551">
        <ele>257.59899902344</ele>
        <time>2018-08-22T11:09:33Z</time>
      </trkpt>
      <trkpt lat="46.53286" lon="4.53539">
        <ele>255.59899902344</ele>
        <time>2018-08-22T11:09:44Z</time>
      </trkpt>
      <trkpt lat="46.53295" lon="4.53534">
        <ele>251.59899902344</ele>
        <time>2018-08-22T11:09:49Z</time>
      </trkpt>
      <trkpt lat="46.53302" lon="4.5353">
        <ele>253.59899902344</ele>
        <time>2018-08-22T11:09:55Z</time>
      </trkpt>
      <trkpt lat="46.53309" lon="4.53525">
        <ele>252.59899902344</ele>
        <time>2018-08-22T11:10:02Z</time>
      </trkpt>
      <trkpt lat="46.53319" lon="4.53523">
        <ele>253.59899902344</ele>
        <time>2018-08-22T11:10:08Z</time>
      </trkpt>
      <trkpt lat="46.53327" lon="4.53521">
        <ele>253.59899902344</ele>
        <time>2018-08-22T11:10:12Z</time>
      </trkpt>
      <trkpt lat="46.53336" lon="4.53521">
        <ele>248.59899902344</ele>
        <time>2018-08-22T11:10:21Z</time>
      </trkpt>
      <trkpt lat="46.53344" lon="4.53518">
        <ele>246.59899902344</ele>
        <time>2018-08-22T11:10:27Z</time>
      </trkpt>
      <trkpt lat="46.53353" lon="4.53523">
        <ele>248.59899902344</ele>
        <time>2018-08-22T11:10:32Z</time>
      </trkpt>
      <trkpt lat="46.53359" lon="4.53528">
        <ele>247.59899902344</ele>
        <time>2018-08-22T11:10:39Z</time>
      </trkpt>
      <trkpt lat="46.53366" lon="4.53533">
        <ele>246.59899902344</ele>
        <time>2018-08-22T11:10:44Z</time>
      </trkpt>
      <trkpt lat="46.53374" lon="4.53538">
        <ele>246.59899902344</ele>
        <time>2018-08-22T11:10:50Z</time>
      </trkpt>
      <trkpt lat="46.5338" lon="4.53544">
        <ele>247.59899902344</ele>
        <time>2018-08-22T11:10:56Z</time>
      </trkpt>
      <trkpt lat="46.53388" lon="4.5355">
        <ele>244.59899902344</ele>
        <time>2018-08-22T11:11:02Z</time>
      </trkpt>
      <trkpt lat="46.53395" lon="4.53556">
        <ele>244.59899902344</ele>
        <time>2018-08-22T11:11:09Z</time>
      </trkpt>
      <trkpt lat="46.53402" lon="4.53562">
        <ele>243.59899902344</ele>
        <time>2018-08-22T11:11:12Z</time>
      </trkpt>
      <trkpt lat="46.53409" lon="4.53564">
        <ele>245.59899902344</ele>
        <time>2018-08-22T11:11:17Z</time>
      </trkpt>
      <trkpt lat="46.53417" lon="4.53567">
        <ele>245.60000610352</ele>
        <time>2018-08-22T11:11:23Z</time>
      </trkpt>
      <trkpt lat="46.53424" lon="4.53573">
        <ele>245.60000610352</ele>
        <time>2018-08-22T11:11:28Z</time>
      </trkpt>
      <trkpt lat="46.53429" lon="4.5358">
        <ele>242.60000610352</ele>
        <time>2018-08-22T11:11:33Z</time>
      </trkpt>
      <trkpt lat="46.53436" lon="4.53589">
        <ele>242.60000610352</ele>
        <time>2018-08-22T11:11:39Z</time>
      </trkpt>
      <trkpt lat="46.53444" lon="4.53591">
        <ele>247.60000610352</ele>
        <time>2018-08-22T11:11:46Z</time>
      </trkpt>
      <trkpt lat="46.53451" lon="4.53597">
        <ele>247.60000610352</ele>
        <time>2018-08-22T11:11:53Z</time>
      </trkpt>
      <trkpt lat="46.5346" lon="4.53596">
        <ele>246.60000610352</ele>
        <time>2018-08-22T11:11:59Z</time>
      </trkpt>
      <trkpt lat="46.53475" lon="4.53602">
        <ele>246.60000610352</ele>
        <time>2018-08-22T11:12:08Z</time>
      </trkpt>
      <trkpt lat="46.5349" lon="4.53606">
        <ele>246.60000610352</ele>
        <time>2018-08-22T11:12:16Z</time>
      </trkpt>
      <trkpt lat="46.53497" lon="4.53613">
        <ele>245.60000610352</ele>
        <time>2018-08-22T11:12:24Z</time>
      </trkpt>
      <trkpt lat="46.53505" lon="4.53617">
        <ele>245.60000610352</ele>
        <time>2018-08-22T11:12:29Z</time>
      </trkpt>
      <trkpt lat="46.5352" lon="4.53625">
        <ele>247.60000610352</ele>
        <time>2018-08-22T11:12:40Z</time>
      </trkpt>
      <trkpt lat="46.53528" lon="4.53627">
        <ele>244.60000610352</ele>
        <time>2018-08-22T11:12:45Z</time>
      </trkpt>
      <trkpt lat="46.53535" lon="4.53631">
        <ele>248.60000610352</ele>
        <time>2018-08-22T11:12:50Z</time>
      </trkpt>
      <trkpt lat="46.53541" lon="4.53638">
        <ele>248.60000610352</ele>
        <time>2018-08-22T11:12:56Z</time>
      </trkpt>
      <trkpt lat="46.5355" lon="4.53638">
        <ele>248.60000610352</ele>
        <time>2018-08-22T11:13:01Z</time>
      </trkpt>
      <trkpt lat="46.53557" lon="4.53643">
        <ele>246.60000610352</ele>
        <time>2018-08-22T11:13:06Z</time>
      </trkpt>
      <trkpt lat="46.53564" lon="4.5365">
        <ele>245.60000610352</ele>
        <time>2018-08-22T11:13:20Z</time>
      </trkpt>
      <trkpt lat="46.53579" lon="4.53661">
        <ele>244.60000610352</ele>
        <time>2018-08-22T11:13:29Z</time>
      </trkpt>
      <trkpt lat="46.53587" lon="4.53665">
        <ele>246.60000610352</ele>
        <time>2018-08-22T11:13:33Z</time>
      </trkpt>
      <trkpt lat="46.53602" lon="4.53669">
        <ele>245.60000610352</ele>
        <time>2018-08-22T11:13:46Z</time>
      </trkpt>
      <trkpt lat="46.53618" lon="4.53673">
        <ele>243.60000610352</ele>
        <time>2018-08-22T11:13:54Z</time>
      </trkpt>
      <trkpt lat="46.53626" lon="4.53676">
        <ele>240.60000610352</ele>
        <time>2018-08-22T11:14:06Z</time>
      </trkpt>
      <trkpt lat="46.53632" lon="4.53687">
        <ele>241.60000610352</ele>
        <time>2018-08-22T11:14:12Z</time>
      </trkpt>
      <trkpt lat="46.53648" lon="4.53692">
        <ele>244.60000610352</ele>
        <time>2018-08-22T11:14:21Z</time>
      </trkpt>
      <trkpt lat="46.53663" lon="4.53695">
        <ele>243.60000610352</ele>
        <time>2018-08-22T11:14:28Z</time>
      </trkpt>
      <trkpt lat="46.53678" lon="4.53701">
        <ele>240.60000610352</ele>
        <time>2018-08-22T11:14:41Z</time>
      </trkpt>
      <trkpt lat="46.53686" lon="4.53702">
        <ele>238.60000610352</ele>
        <time>2018-08-22T11:14:49Z</time>
      </trkpt>
      <trkpt lat="46.53693" lon="4.53696">
        <ele>236.60000610352</ele>
        <time>2018-08-22T11:14:56Z</time>
      </trkpt>
      <trkpt lat="46.53702" lon="4.53696">
        <ele>237.60000610352</ele>
        <time>2018-08-22T11:15:01Z</time>
      </trkpt>
      <trkpt lat="46.53709" lon="4.53694">
        <ele>238.60000610352</ele>
        <time>2018-08-22T11:15:04Z</time>
      </trkpt>
      <trkpt lat="46.53718" lon="4.53693">
        <ele>238.60000610352</ele>
        <time>2018-08-22T11:15:09Z</time>
      </trkpt>
      <trkpt lat="46.53727" lon="4.53692">
        <ele>238.60000610352</ele>
        <time>2018-08-22T11:15:14Z</time>
      </trkpt>
      <trkpt lat="46.53741" lon="4.53688">
        <ele>239.60000610352</ele>
        <time>2018-08-22T11:15:27Z</time>
      </trkpt>
      <trkpt lat="46.53756" lon="4.53682">
        <ele>243.6009979248</ele>
        <time>2018-08-22T11:15:37Z</time>
      </trkpt>
      <trkpt lat="46.53762" lon="4.53676">
        <ele>242.6009979248</ele>
        <time>2018-08-22T11:15:44Z</time>
      </trkpt>
      <trkpt lat="46.53769" lon="4.5367">
        <ele>243.6009979248</ele>
        <time>2018-08-22T11:15:49Z</time>
      </trkpt>
      <trkpt lat="46.53774" lon="4.53661">
        <ele>244.6009979248</ele>
        <time>2018-08-22T11:15:57Z</time>
      </trkpt>
      <trkpt lat="46.53779" lon="4.53654">
        <ele>244.6009979248</ele>
        <time>2018-08-22T11:16:04Z</time>
      </trkpt>
      <trkpt lat="46.53785" lon="4.53644">
        <ele>246.6009979248</ele>
        <time>2018-08-22T11:16:09Z</time>
      </trkpt>
      <trkpt lat="46.53791" lon="4.53636">
        <ele>245.6009979248</ele>
        <time>2018-08-22T11:16:16Z</time>
      </trkpt>
      <trkpt lat="46.5379" lon="4.53621">
        <ele>242.6009979248</ele>
        <time>2018-08-22T11:16:21Z</time>
      </trkpt>
      <trkpt lat="46.53795" lon="4.53614">
        <ele>242.6009979248</ele>
        <time>2018-08-22T11:16:27Z</time>
      </trkpt>
      <trkpt lat="46.53798" lon="4.53604">
        <ele>239.6009979248</ele>
        <time>2018-08-22T11:16:32Z</time>
      </trkpt>
      <trkpt lat="46.53802" lon="4.53595">
        <ele>239.6009979248</ele>
        <time>2018-08-22T11:16:37Z</time>
      </trkpt>
      <trkpt lat="46.53809" lon="4.53589">
        <ele>241.6009979248</ele>
        <time>2018-08-22T11:16:42Z</time>
      </trkpt>
      <trkpt lat="46.53815" lon="4.53583">
        <ele>242.6009979248</ele>
        <time>2018-08-22T11:16:47Z</time>
      </trkpt>
      <trkpt lat="46.53821" lon="4.53576">
        <ele>233.6009979248</ele>
        <time>2018-08-22T11:16:57Z</time>
      </trkpt>
      <trkpt lat="46.5383" lon="4.53575">
        <ele>234.6009979248</ele>
        <time>2018-08-22T11:17:03Z</time>
      </trkpt>
      <trkpt lat="46.53845" lon="4.53577">
        <ele>235.6009979248</ele>
        <time>2018-08-22T11:17:13Z</time>
      </trkpt>
      <trkpt lat="46.53853" lon="4.53576">
        <ele>235.6009979248</ele>
        <time>2018-08-22T11:17:22Z</time>
      </trkpt>
      <trkpt lat="46.5386" lon="4.53576">
        <ele>235.6009979248</ele>
        <time>2018-08-22T11:17:28Z</time>
      </trkpt>
      <trkpt lat="46.53867" lon="4.53571">
        <ele>233.6009979248</ele>
        <time>2018-08-22T11:17:33Z</time>
      </trkpt>
      <trkpt lat="46.53873" lon="4.53563">
        <ele>233.6009979248</ele>
        <time>2018-08-22T11:17:39Z</time>
      </trkpt>
      <trkpt lat="46.53881" lon="4.5356">
        <ele>235.6009979248</ele>
        <time>2018-08-22T11:17:44Z</time>
      </trkpt>
      <trkpt lat="46.53888" lon="4.53553">
        <ele>234.6009979248</ele>
        <time>2018-08-22T11:17:50Z</time>
      </trkpt>
      <trkpt lat="46.53894" lon="4.53546">
        <ele>233.6009979248</ele>
        <time>2018-08-22T11:17:56Z</time>
      </trkpt>
      <trkpt lat="46.53903" lon="4.53543">
        <ele>235.6009979248</ele>
        <time>2018-08-22T11:18:01Z</time>
      </trkpt>
      <trkpt lat="46.5391" lon="4.53537">
        <ele>237.6009979248</ele>
        <time>2018-08-22T11:18:06Z</time>
      </trkpt>
      <trkpt lat="46.53918" lon="4.5353">
        <ele>236.6009979248</ele>
        <time>2018-08-22T11:18:13Z</time>
      </trkpt>
      <trkpt lat="46.53932" lon="4.53524">
        <ele>237.6009979248</ele>
        <time>2018-08-22T11:18:21Z</time>
      </trkpt>
      <trkpt lat="46.5394" lon="4.53523">
        <ele>233.6009979248</ele>
        <time>2018-08-22T11:18:30Z</time>
      </trkpt>
      <trkpt lat="46.53946" lon="4.53514">
        <ele>234.6009979248</ele>
        <time>2018-08-22T11:18:38Z</time>
      </trkpt>
      <trkpt lat="46.53948" lon="4.53504">
        <ele>236.6009979248</ele>
        <time>2018-08-22T11:18:43Z</time>
      </trkpt>
      <trkpt lat="46.53952" lon="4.53493">
        <ele>237.6009979248</ele>
        <time>2018-08-22T11:18:49Z</time>
      </trkpt>
      <trkpt lat="46.53952" lon="4.53481">
        <ele>236.6009979248</ele>
        <time>2018-08-22T11:18:57Z</time>
      </trkpt>
      <trkpt lat="46.53955" lon="4.5347">
        <ele>236.6009979248</ele>
        <time>2018-08-22T11:19:04Z</time>
      </trkpt>
      <trkpt lat="46.53957" lon="4.53458">
        <ele>236.6009979248</ele>
        <time>2018-08-22T11:19:12Z</time>
      </trkpt>
      <trkpt lat="46.53963" lon="4.53448">
        <ele>237.6009979248</ele>
        <time>2018-08-22T11:19:18Z</time>
      </trkpt>
      <trkpt lat="46.53964" lon="4.53438">
        <ele>239.6009979248</ele>
        <time>2018-08-22T11:19:23Z</time>
      </trkpt>
      <trkpt lat="46.53955" lon="4.53434">
        <ele>237.6009979248</ele>
        <time>2018-08-22T11:19:30Z</time>
      </trkpt>
      <trkpt lat="46.53948" lon="4.5343">
        <ele>236.6009979248</ele>
        <time>2018-08-22T11:19:36Z</time>
      </trkpt>
      <trkpt lat="46.5394" lon="4.53425">
        <ele>237.6009979248</ele>
        <time>2018-08-22T11:19:42Z</time>
      </trkpt>
      <trkpt lat="46.53934" lon="4.5342">
        <ele>238.6009979248</ele>
        <time>2018-08-22T11:19:47Z</time>
      </trkpt>
      <trkpt lat="46.53926" lon="4.53416">
        <ele>238.6009979248</ele>
        <time>2018-08-22T11:19:53Z</time>
      </trkpt>
      <trkpt lat="46.53919" lon="4.53414">
        <ele>234.6009979248</ele>
        <time>2018-08-22T11:19:59Z</time>
      </trkpt>
      <trkpt lat="46.53911" lon="4.5341">
        <ele>237.6009979248</ele>
        <time>2018-08-22T11:20:06Z</time>
      </trkpt>
      <trkpt lat="46.53903" lon="4.53407">
        <ele>237.6009979248</ele>
        <time>2018-08-22T11:20:13Z</time>
      </trkpt>
      <trkpt lat="46.53887" lon="4.53398">
        <ele>238.6009979248</ele>
        <time>2018-08-22T11:20:23Z</time>
      </trkpt>
      <trkpt lat="46.5388" lon="4.53395">
        <ele>237.6009979248</ele>
        <time>2018-08-22T11:20:28Z</time>
      </trkpt>
      <trkpt lat="46.53873" lon="4.53392">
        <ele>237.6009979248</ele>
        <time>2018-08-22T11:20:34Z</time>
      </trkpt>
      <trkpt lat="46.53865" lon="4.53387">
        <ele>240.6009979248</ele>
        <time>2018-08-22T11:20:39Z</time>
      </trkpt>
      <trkpt lat="46.53857" lon="4.53383">
        <ele>237.6009979248</ele>
        <time>2018-08-22T11:20:46Z</time>
      </trkpt>
      <trkpt lat="46.53848" lon="4.53379">
        <ele>239.6009979248</ele>
        <time>2018-08-22T11:20:52Z</time>
      </trkpt>
      <trkpt lat="46.5384" lon="4.53376">
        <ele>239.6009979248</ele>
        <time>2018-08-22T11:20:59Z</time>
      </trkpt>
      <trkpt lat="46.53833" lon="4.5337">
        <ele>240.6009979248</ele>
        <time>2018-08-22T11:21:04Z</time>
      </trkpt>
      <trkpt lat="46.53826" lon="4.53365">
        <ele>241.60000610352</ele>
        <time>2018-08-22T11:21:12Z</time>
      </trkpt>
      <trkpt lat="46.53818" lon="4.53361">
        <ele>242.60000610352</ele>
        <time>2018-08-22T11:21:18Z</time>
      </trkpt>
      <trkpt lat="46.53804" lon="4.53353">
        <ele>237.60000610352</ele>
        <time>2018-08-22T11:21:29Z</time>
      </trkpt>
      <trkpt lat="46.53796" lon="4.53347">
        <ele>239.60000610352</ele>
        <time>2018-08-22T11:21:34Z</time>
      </trkpt>
      <trkpt lat="46.53789" lon="4.53341">
        <ele>238.60000610352</ele>
        <time>2018-08-22T11:21:42Z</time>
      </trkpt>
      <trkpt lat="46.53781" lon="4.53338">
        <ele>236.60000610352</ele>
        <time>2018-08-22T11:21:48Z</time>
      </trkpt>
      <trkpt lat="46.53773" lon="4.53339">
        <ele>238.60000610352</ele>
        <time>2018-08-22T11:21:56Z</time>
      </trkpt>
      <trkpt lat="46.53773" lon="4.5335">
        <ele>238.60000610352</ele>
        <time>2018-08-22T11:22:03Z</time>
      </trkpt>
      <trkpt lat="46.53778" lon="4.53359">
        <ele>239.60000610352</ele>
        <time>2018-08-22T11:22:11Z</time>
      </trkpt>
    </trkseg>
  </trk>
</gpx>